<?xml version="1.0" encoding="UTF-8" standalone="no" ?>
<gpx xmlns="http://www.topografix.com/GPX/1/1" xmlns:xsi="http://www.w3.org/2001/XMLSchema-instance" xsi:schemaLocation="http://www.topografix.com/GPX/1/1 http://www.topografix.com/GPX/1/1/gpx.xsd" version="1.1" creator="VisuGPX - https://www.visugpx.com">
  <metadata>
    <name>Giuncheto</name>
    <desc><![CDATA[Voir : [url]https://les-randos-du-grand.eklablog.com/2026/05/escapade-en-corse-4-le-sentier-decouverte-de-giuncheto.html[/url]]]></desc>
  </metadata>
  <trk>
    <name><![CDATA[Giuncheto]]></name>
    <trkseg>
      <trkpt lat="41.58851" lon="8.95506">
        <ele>435.13</ele>
        <time>2026-05-08T08:54:24Z</time>
      </trkpt>
      <trkpt lat="41.5885" lon="8.95504">
        <ele>436.58</ele>
        <time>2026-05-08T08:54:57Z</time>
      </trkpt>
      <trkpt lat="41.5885" lon="8.95503">
        <ele>436.58</ele>
        <time>2026-05-08T08:55:19Z</time>
      </trkpt>
      <trkpt lat="41.58849" lon="8.95504">
        <ele>442.82</ele>
        <time>2026-05-08T08:55:42Z</time>
      </trkpt>
      <trkpt lat="41.58851" lon="8.95505">
        <ele>441.86</ele>
        <time>2026-05-08T08:56:06Z</time>
      </trkpt>
      <trkpt lat="41.58853" lon="8.95509">
        <ele>436.58</ele>
        <time>2026-05-08T08:56:37Z</time>
      </trkpt>
      <trkpt lat="41.58849" lon="8.95507">
        <ele>435.13</ele>
        <time>2026-05-08T08:56:58Z</time>
      </trkpt>
      <trkpt lat="41.5885" lon="8.9551">
        <ele>435.61</ele>
        <time>2026-05-08T08:57:12Z</time>
      </trkpt>
      <trkpt lat="41.58862" lon="8.95515">
        <ele>435.61</ele>
        <time>2026-05-08T08:57:25Z</time>
      </trkpt>
      <trkpt lat="41.58863" lon="8.95515">
        <ele>435.13</ele>
        <time>2026-05-08T08:57:26Z</time>
      </trkpt>
      <trkpt lat="41.58872" lon="8.95516">
        <ele>434.65</ele>
        <time>2026-05-08T08:57:37Z</time>
      </trkpt>
      <trkpt lat="41.58869" lon="8.95519">
        <ele>433.21</ele>
        <time>2026-05-08T08:57:43Z</time>
      </trkpt>
      <trkpt lat="41.58857" lon="8.95523">
        <ele>432.73</ele>
        <time>2026-05-08T08:57:57Z</time>
      </trkpt>
      <trkpt lat="41.58856" lon="8.95527">
        <ele>432.73</ele>
        <time>2026-05-08T08:58:11Z</time>
      </trkpt>
      <trkpt lat="41.58854" lon="8.95528">
        <ele>432.73</ele>
        <time>2026-05-08T08:58:30Z</time>
      </trkpt>
      <trkpt lat="41.58856" lon="8.95529">
        <ele>433.69</ele>
        <time>2026-05-08T08:58:58Z</time>
      </trkpt>
      <trkpt lat="41.58851" lon="8.95529">
        <ele>435.13</ele>
        <time>2026-05-08T08:59:10Z</time>
      </trkpt>
      <trkpt lat="41.58843" lon="8.9553">
        <ele>434.17</ele>
        <time>2026-05-08T08:59:26Z</time>
      </trkpt>
      <trkpt lat="41.58834" lon="8.95535">
        <ele>432.73</ele>
        <time>2026-05-08T08:59:39Z</time>
      </trkpt>
      <trkpt lat="41.58824" lon="8.95542">
        <ele>431.77</ele>
        <time>2026-05-08T08:59:53Z</time>
      </trkpt>
      <trkpt lat="41.58817" lon="8.95549">
        <ele>429.37</ele>
        <time>2026-05-08T09:00:06Z</time>
      </trkpt>
      <trkpt lat="41.5881" lon="8.95558">
        <ele>428.89</ele>
        <time>2026-05-08T09:00:19Z</time>
      </trkpt>
      <trkpt lat="41.58804" lon="8.95567">
        <ele>427.44</ele>
        <time>2026-05-08T09:00:31Z</time>
      </trkpt>
      <trkpt lat="41.58801" lon="8.95576">
        <ele>424.56</ele>
        <time>2026-05-08T09:00:41Z</time>
      </trkpt>
      <trkpt lat="41.58799" lon="8.95586">
        <ele>424.08</ele>
        <time>2026-05-08T09:00:52Z</time>
      </trkpt>
      <trkpt lat="41.58796" lon="8.95595">
        <ele>422.16</ele>
        <time>2026-05-08T09:01:03Z</time>
      </trkpt>
      <trkpt lat="41.58791" lon="8.95594">
        <ele>419.75</ele>
        <time>2026-05-08T09:01:21Z</time>
      </trkpt>
      <trkpt lat="41.5879" lon="8.95592">
        <ele>418.79</ele>
        <time>2026-05-08T09:01:38Z</time>
      </trkpt>
      <trkpt lat="41.58794" lon="8.95596">
        <ele>420.23</ele>
        <time>2026-05-08T09:01:59Z</time>
      </trkpt>
      <trkpt lat="41.58795" lon="8.95606">
        <ele>420.23</ele>
        <time>2026-05-08T09:02:15Z</time>
      </trkpt>
      <trkpt lat="41.58791" lon="8.95611">
        <ele>420.71</ele>
        <time>2026-05-08T09:02:26Z</time>
      </trkpt>
      <trkpt lat="41.58788" lon="8.95611">
        <ele>421.68</ele>
        <time>2026-05-08T09:02:38Z</time>
      </trkpt>
      <trkpt lat="41.58791" lon="8.9561">
        <ele>422.64</ele>
        <time>2026-05-08T09:02:55Z</time>
      </trkpt>
      <trkpt lat="41.58797" lon="8.9561">
        <ele>422.64</ele>
        <time>2026-05-08T09:03:04Z</time>
      </trkpt>
      <trkpt lat="41.58801" lon="8.95618">
        <ele>422.16</ele>
        <time>2026-05-08T09:03:15Z</time>
      </trkpt>
      <trkpt lat="41.58806" lon="8.95615">
        <ele>422.64</ele>
        <time>2026-05-08T09:03:28Z</time>
      </trkpt>
      <trkpt lat="41.58818" lon="8.95613">
        <ele>423.6</ele>
        <time>2026-05-08T09:03:45Z</time>
      </trkpt>
      <trkpt lat="41.58823" lon="8.95605">
        <ele>426</ele>
        <time>2026-05-08T09:03:57Z</time>
      </trkpt>
      <trkpt lat="41.58829" lon="8.95598">
        <ele>428.4</ele>
        <time>2026-05-08T09:04:10Z</time>
      </trkpt>
      <trkpt lat="41.58836" lon="8.9559">
        <ele>430.81</ele>
        <time>2026-05-08T09:04:24Z</time>
      </trkpt>
      <trkpt lat="41.58838" lon="8.95588">
        <ele>432.25</ele>
        <time>2026-05-08T09:04:38Z</time>
      </trkpt>
      <trkpt lat="41.58833" lon="8.95593">
        <ele>431.29</ele>
        <time>2026-05-08T09:04:50Z</time>
      </trkpt>
      <trkpt lat="41.58832" lon="8.95593">
        <ele>430.81</ele>
        <time>2026-05-08T09:04:51Z</time>
      </trkpt>
      <trkpt lat="41.58823" lon="8.95605">
        <ele>430.33</ele>
        <time>2026-05-08T09:05:05Z</time>
      </trkpt>
      <trkpt lat="41.58814" lon="8.95611">
        <ele>428.89</ele>
        <time>2026-05-08T09:05:20Z</time>
      </trkpt>
      <trkpt lat="41.58804" lon="8.95623">
        <ele>429.37</ele>
        <time>2026-05-08T09:05:38Z</time>
      </trkpt>
      <trkpt lat="41.58801" lon="8.95628">
        <ele>427.92</ele>
        <time>2026-05-08T09:05:49Z</time>
      </trkpt>
      <trkpt lat="41.58805" lon="8.95635">
        <ele>426</ele>
        <time>2026-05-08T09:05:59Z</time>
      </trkpt>
      <trkpt lat="41.58809" lon="8.95642">
        <ele>424.56</ele>
        <time>2026-05-08T09:06:09Z</time>
      </trkpt>
      <trkpt lat="41.58814" lon="8.95652">
        <ele>423.6</ele>
        <time>2026-05-08T09:06:22Z</time>
      </trkpt>
      <trkpt lat="41.58817" lon="8.95658">
        <ele>422.64</ele>
        <time>2026-05-08T09:06:36Z</time>
      </trkpt>
      <trkpt lat="41.5882" lon="8.95665">
        <ele>421.19</ele>
        <time>2026-05-08T09:06:47Z</time>
      </trkpt>
      <trkpt lat="41.5882" lon="8.95674">
        <ele>420.71</ele>
        <time>2026-05-08T09:07:00Z</time>
      </trkpt>
      <trkpt lat="41.58818" lon="8.95681">
        <ele>419.27</ele>
        <time>2026-05-08T09:07:13Z</time>
      </trkpt>
      <trkpt lat="41.58819" lon="8.95688">
        <ele>419.75</ele>
        <time>2026-05-08T09:07:24Z</time>
      </trkpt>
      <trkpt lat="41.58816" lon="8.9569">
        <ele>422.16</ele>
        <time>2026-05-08T09:07:46Z</time>
      </trkpt>
      <trkpt lat="41.58817" lon="8.95702">
        <ele>422.16</ele>
        <time>2026-05-08T09:07:59Z</time>
      </trkpt>
      <trkpt lat="41.58815" lon="8.95707">
        <ele>421.68</ele>
        <time>2026-05-08T09:08:13Z</time>
      </trkpt>
      <trkpt lat="41.58814" lon="8.95719">
        <ele>420.23</ele>
        <time>2026-05-08T09:08:25Z</time>
      </trkpt>
      <trkpt lat="41.58813" lon="8.9572">
        <ele>420.23</ele>
        <time>2026-05-08T09:08:26Z</time>
      </trkpt>
      <trkpt lat="41.58816" lon="8.95731">
        <ele>420.71</ele>
        <time>2026-05-08T09:08:37Z</time>
      </trkpt>
      <trkpt lat="41.5882" lon="8.95737">
        <ele>421.19</ele>
        <time>2026-05-08T09:08:49Z</time>
      </trkpt>
      <trkpt lat="41.58824" lon="8.95743">
        <ele>422.16</ele>
        <time>2026-05-08T09:09:03Z</time>
      </trkpt>
      <trkpt lat="41.58828" lon="8.95746">
        <ele>424.08</ele>
        <time>2026-05-08T09:09:25Z</time>
      </trkpt>
      <trkpt lat="41.58831" lon="8.95748">
        <ele>425.52</ele>
        <time>2026-05-08T09:09:40Z</time>
      </trkpt>
      <trkpt lat="41.58834" lon="8.95752">
        <ele>425.52</ele>
        <time>2026-05-08T09:09:53Z</time>
      </trkpt>
      <trkpt lat="41.58838" lon="8.95757">
        <ele>427.44</ele>
        <time>2026-05-08T09:10:06Z</time>
      </trkpt>
      <trkpt lat="41.58843" lon="8.95764">
        <ele>430.81</ele>
        <time>2026-05-08T09:10:17Z</time>
      </trkpt>
      <trkpt lat="41.58848" lon="8.95769">
        <ele>434.17</ele>
        <time>2026-05-08T09:10:30Z</time>
      </trkpt>
      <trkpt lat="41.5885" lon="8.95774">
        <ele>433.21</ele>
        <time>2026-05-08T09:10:43Z</time>
      </trkpt>
      <trkpt lat="41.58849" lon="8.9578">
        <ele>430.33</ele>
        <time>2026-05-08T09:10:55Z</time>
      </trkpt>
      <trkpt lat="41.58849" lon="8.95788">
        <ele>427.92</ele>
        <time>2026-05-08T09:11:07Z</time>
      </trkpt>
      <trkpt lat="41.58851" lon="8.95796">
        <ele>426.96</ele>
        <time>2026-05-08T09:11:25Z</time>
      </trkpt>
      <trkpt lat="41.58853" lon="8.95799">
        <ele>427.44</ele>
        <time>2026-05-08T09:11:38Z</time>
      </trkpt>
      <trkpt lat="41.58855" lon="8.95801">
        <ele>428.4</ele>
        <time>2026-05-08T09:11:53Z</time>
      </trkpt>
      <trkpt lat="41.58857" lon="8.95807">
        <ele>428.4</ele>
        <time>2026-05-08T09:12:07Z</time>
      </trkpt>
      <trkpt lat="41.58855" lon="8.95815">
        <ele>426.96</ele>
        <time>2026-05-08T09:12:21Z</time>
      </trkpt>
      <trkpt lat="41.58853" lon="8.95823">
        <ele>426</ele>
        <time>2026-05-08T09:12:35Z</time>
      </trkpt>
      <trkpt lat="41.58855" lon="8.95831">
        <ele>426</ele>
        <time>2026-05-08T09:12:58Z</time>
      </trkpt>
      <trkpt lat="41.58852" lon="8.95836">
        <ele>426</ele>
        <time>2026-05-08T09:13:11Z</time>
      </trkpt>
      <trkpt lat="41.58851" lon="8.95841">
        <ele>427.44</ele>
        <time>2026-05-08T09:13:29Z</time>
      </trkpt>
      <trkpt lat="41.58853" lon="8.95844">
        <ele>429.37</ele>
        <time>2026-05-08T09:13:45Z</time>
      </trkpt>
      <trkpt lat="41.58854" lon="8.95846">
        <ele>431.29</ele>
        <time>2026-05-08T09:14:02Z</time>
      </trkpt>
      <trkpt lat="41.58855" lon="8.95843">
        <ele>431.29</ele>
        <time>2026-05-08T09:14:23Z</time>
      </trkpt>
      <trkpt lat="41.58855" lon="8.95851">
        <ele>428.89</ele>
        <time>2026-05-08T09:14:39Z</time>
      </trkpt>
      <trkpt lat="41.58855" lon="8.95859">
        <ele>428.4</ele>
        <time>2026-05-08T09:14:51Z</time>
      </trkpt>
      <trkpt lat="41.58858" lon="8.95871">
        <ele>427.44</ele>
        <time>2026-05-08T09:15:04Z</time>
      </trkpt>
      <trkpt lat="41.5886" lon="8.95874">
        <ele>429.85</ele>
        <time>2026-05-08T09:15:17Z</time>
      </trkpt>
      <trkpt lat="41.5886" lon="8.95877">
        <ele>430.81</ele>
        <time>2026-05-08T09:15:35Z</time>
      </trkpt>
      <trkpt lat="41.5886" lon="8.95883">
        <ele>433.21</ele>
        <time>2026-05-08T09:15:49Z</time>
      </trkpt>
      <trkpt lat="41.5886" lon="8.95884">
        <ele>433.21</ele>
        <time>2026-05-08T09:16:07Z</time>
      </trkpt>
      <trkpt lat="41.5886" lon="8.95884">
        <ele>434.65</ele>
        <time>2026-05-08T09:16:32Z</time>
      </trkpt>
      <trkpt lat="41.58863" lon="8.95889">
        <ele>434.17</ele>
        <time>2026-05-08T09:16:45Z</time>
      </trkpt>
      <trkpt lat="41.58867" lon="8.95892">
        <ele>433.69</ele>
        <time>2026-05-08T09:16:59Z</time>
      </trkpt>
      <trkpt lat="41.5887" lon="8.95897">
        <ele>432.25</ele>
        <time>2026-05-08T09:17:09Z</time>
      </trkpt>
      <trkpt lat="41.58877" lon="8.95898">
        <ele>431.29</ele>
        <time>2026-05-08T09:17:21Z</time>
      </trkpt>
      <trkpt lat="41.58881" lon="8.95894">
        <ele>430.81</ele>
        <time>2026-05-08T09:17:35Z</time>
      </trkpt>
      <trkpt lat="41.58884" lon="8.95894">
        <ele>433.21</ele>
        <time>2026-05-08T09:17:50Z</time>
      </trkpt>
      <trkpt lat="41.58887" lon="8.9589">
        <ele>435.61</ele>
        <time>2026-05-08T09:18:04Z</time>
      </trkpt>
      <trkpt lat="41.5889" lon="8.95893">
        <ele>444.27</ele>
        <time>2026-05-08T09:18:34Z</time>
      </trkpt>
      <trkpt lat="41.58887" lon="8.95888">
        <ele>444.27</ele>
        <time>2026-05-08T09:18:52Z</time>
      </trkpt>
      <trkpt lat="41.58893" lon="8.95894">
        <ele>444.75</ele>
        <time>2026-05-08T09:19:03Z</time>
      </trkpt>
      <trkpt lat="41.58896" lon="8.959">
        <ele>442.34</ele>
        <time>2026-05-08T09:19:15Z</time>
      </trkpt>
      <trkpt lat="41.58897" lon="8.95897">
        <ele>439.46</ele>
        <time>2026-05-08T09:19:27Z</time>
      </trkpt>
      <trkpt lat="41.58897" lon="8.95904">
        <ele>438.02</ele>
        <time>2026-05-08T09:19:41Z</time>
      </trkpt>
      <trkpt lat="41.58899" lon="8.95911">
        <ele>438.5</ele>
        <time>2026-05-08T09:19:54Z</time>
      </trkpt>
      <trkpt lat="41.58899" lon="8.95915">
        <ele>437.54</ele>
        <time>2026-05-08T09:20:06Z</time>
      </trkpt>
      <trkpt lat="41.58902" lon="8.95927">
        <ele>437.06</ele>
        <time>2026-05-08T09:20:19Z</time>
      </trkpt>
      <trkpt lat="41.58902" lon="8.9594">
        <ele>436.58</ele>
        <time>2026-05-08T09:20:29Z</time>
      </trkpt>
      <trkpt lat="41.58905" lon="8.95953">
        <ele>436.1</ele>
        <time>2026-05-08T09:20:41Z</time>
      </trkpt>
      <trkpt lat="41.5891" lon="8.95963">
        <ele>435.61</ele>
        <time>2026-05-08T09:20:54Z</time>
      </trkpt>
      <trkpt lat="41.58912" lon="8.95973">
        <ele>435.61</ele>
        <time>2026-05-08T09:21:05Z</time>
      </trkpt>
      <trkpt lat="41.58914" lon="8.95986">
        <ele>438.02</ele>
        <time>2026-05-08T09:21:18Z</time>
      </trkpt>
      <trkpt lat="41.58919" lon="8.95999">
        <ele>437.54</ele>
        <time>2026-05-08T09:21:33Z</time>
      </trkpt>
      <trkpt lat="41.58923" lon="8.9601">
        <ele>437.54</ele>
        <time>2026-05-08T09:21:46Z</time>
      </trkpt>
      <trkpt lat="41.58928" lon="8.96023">
        <ele>437.54</ele>
        <time>2026-05-08T09:21:59Z</time>
      </trkpt>
      <trkpt lat="41.58928" lon="8.96029">
        <ele>437.54</ele>
        <time>2026-05-08T09:22:10Z</time>
      </trkpt>
      <trkpt lat="41.58929" lon="8.9604">
        <ele>436.1</ele>
        <time>2026-05-08T09:22:24Z</time>
      </trkpt>
      <trkpt lat="41.58935" lon="8.96051">
        <ele>435.61</ele>
        <time>2026-05-08T09:22:38Z</time>
      </trkpt>
      <trkpt lat="41.58941" lon="8.96056">
        <ele>437.06</ele>
        <time>2026-05-08T09:22:52Z</time>
      </trkpt>
      <trkpt lat="41.58946" lon="8.96067">
        <ele>438.98</ele>
        <time>2026-05-08T09:23:08Z</time>
      </trkpt>
      <trkpt lat="41.5895" lon="8.96079">
        <ele>438.5</ele>
        <time>2026-05-08T09:23:22Z</time>
      </trkpt>
      <trkpt lat="41.58953" lon="8.96093">
        <ele>436.1</ele>
        <time>2026-05-08T09:23:35Z</time>
      </trkpt>
      <trkpt lat="41.58955" lon="8.96105">
        <ele>437.06</ele>
        <time>2026-05-08T09:23:48Z</time>
      </trkpt>
      <trkpt lat="41.58956" lon="8.96112">
        <ele>438.02</ele>
        <time>2026-05-08T09:24:00Z</time>
      </trkpt>
      <trkpt lat="41.58961" lon="8.96122">
        <ele>438.5</ele>
        <time>2026-05-08T09:24:13Z</time>
      </trkpt>
      <trkpt lat="41.58965" lon="8.96125">
        <ele>437.54</ele>
        <time>2026-05-08T09:24:34Z</time>
      </trkpt>
      <trkpt lat="41.58966" lon="8.9613">
        <ele>438.98</ele>
        <time>2026-05-08T09:24:49Z</time>
      </trkpt>
      <trkpt lat="41.58963" lon="8.96131">
        <ele>443.79</ele>
        <time>2026-05-08T09:25:08Z</time>
      </trkpt>
      <trkpt lat="41.58964" lon="8.96136">
        <ele>442.34</ele>
        <time>2026-05-08T09:25:23Z</time>
      </trkpt>
      <trkpt lat="41.58964" lon="8.96144">
        <ele>440.42</ele>
        <time>2026-05-08T09:25:33Z</time>
      </trkpt>
      <trkpt lat="41.58967" lon="8.96151">
        <ele>438.5</ele>
        <time>2026-05-08T09:25:44Z</time>
      </trkpt>
      <trkpt lat="41.58969" lon="8.96158">
        <ele>436.58</ele>
        <time>2026-05-08T09:25:56Z</time>
      </trkpt>
      <trkpt lat="41.5897" lon="8.96161">
        <ele>434.65</ele>
        <time>2026-05-08T09:26:23Z</time>
      </trkpt>
      <trkpt lat="41.5897" lon="8.96166">
        <ele>437.54</ele>
        <time>2026-05-08T09:26:39Z</time>
      </trkpt>
      <trkpt lat="41.58971" lon="8.96171">
        <ele>439.94</ele>
        <time>2026-05-08T09:26:54Z</time>
      </trkpt>
      <trkpt lat="41.5897" lon="8.96176">
        <ele>439.94</ele>
        <time>2026-05-08T09:27:04Z</time>
      </trkpt>
      <trkpt lat="41.58974" lon="8.96185">
        <ele>439.46</ele>
        <time>2026-05-08T09:27:18Z</time>
      </trkpt>
      <trkpt lat="41.58976" lon="8.96194">
        <ele>439.94</ele>
        <time>2026-05-08T09:27:32Z</time>
      </trkpt>
      <trkpt lat="41.58977" lon="8.96202">
        <ele>440.9</ele>
        <time>2026-05-08T09:27:45Z</time>
      </trkpt>
      <trkpt lat="41.58976" lon="8.96211">
        <ele>441.86</ele>
        <time>2026-05-08T09:27:58Z</time>
      </trkpt>
      <trkpt lat="41.58976" lon="8.96219">
        <ele>441.38</ele>
        <time>2026-05-08T09:28:17Z</time>
      </trkpt>
      <trkpt lat="41.58973" lon="8.96223">
        <ele>444.27</ele>
        <time>2026-05-08T09:28:33Z</time>
      </trkpt>
      <trkpt lat="41.58973" lon="8.96226">
        <ele>444.75</ele>
        <time>2026-05-08T09:28:43Z</time>
      </trkpt>
      <trkpt lat="41.58975" lon="8.96232">
        <ele>445.71</ele>
        <time>2026-05-08T09:29:10Z</time>
      </trkpt>
      <trkpt lat="41.58971" lon="8.96245">
        <ele>445.71</ele>
        <time>2026-05-08T09:29:22Z</time>
      </trkpt>
      <trkpt lat="41.58969" lon="8.96257">
        <ele>447.63</ele>
        <time>2026-05-08T09:29:36Z</time>
      </trkpt>
      <trkpt lat="41.58965" lon="8.96262">
        <ele>447.63</ele>
        <time>2026-05-08T09:29:48Z</time>
      </trkpt>
      <trkpt lat="41.58961" lon="8.96271">
        <ele>448.59</ele>
        <time>2026-05-08T09:30:02Z</time>
      </trkpt>
      <trkpt lat="41.58958" lon="8.96282">
        <ele>449.07</ele>
        <time>2026-05-08T09:30:16Z</time>
      </trkpt>
      <trkpt lat="41.58954" lon="8.9629">
        <ele>449.07</ele>
        <time>2026-05-08T09:30:28Z</time>
      </trkpt>
      <trkpt lat="41.58953" lon="8.96301">
        <ele>450.03</ele>
        <time>2026-05-08T09:30:41Z</time>
      </trkpt>
      <trkpt lat="41.58951" lon="8.9631">
        <ele>451</ele>
        <time>2026-05-08T09:30:55Z</time>
      </trkpt>
      <trkpt lat="41.58951" lon="8.96323">
        <ele>450.03</ele>
        <time>2026-05-08T09:31:11Z</time>
      </trkpt>
      <trkpt lat="41.58949" lon="8.9633">
        <ele>449.55</ele>
        <time>2026-05-08T09:31:22Z</time>
      </trkpt>
      <trkpt lat="41.5895" lon="8.96341">
        <ele>450.03</ele>
        <time>2026-05-08T09:31:38Z</time>
      </trkpt>
      <trkpt lat="41.5895" lon="8.96347">
        <ele>451</ele>
        <time>2026-05-08T09:31:48Z</time>
      </trkpt>
      <trkpt lat="41.58948" lon="8.96359">
        <ele>451.96</ele>
        <time>2026-05-08T09:32:04Z</time>
      </trkpt>
      <trkpt lat="41.58947" lon="8.96368">
        <ele>454.36</ele>
        <time>2026-05-08T09:32:16Z</time>
      </trkpt>
      <trkpt lat="41.58947" lon="8.96375">
        <ele>457.24</ele>
        <time>2026-05-08T09:32:29Z</time>
      </trkpt>
      <trkpt lat="41.58949" lon="8.96382">
        <ele>458.69</ele>
        <time>2026-05-08T09:32:41Z</time>
      </trkpt>
      <trkpt lat="41.5895" lon="8.96394">
        <ele>458.21</ele>
        <time>2026-05-08T09:32:54Z</time>
      </trkpt>
      <trkpt lat="41.58951" lon="8.96401">
        <ele>457.72</ele>
        <time>2026-05-08T09:33:05Z</time>
      </trkpt>
      <trkpt lat="41.5895" lon="8.96409">
        <ele>459.65</ele>
        <time>2026-05-08T09:33:17Z</time>
      </trkpt>
      <trkpt lat="41.58952" lon="8.96419">
        <ele>459.17</ele>
        <time>2026-05-08T09:33:31Z</time>
      </trkpt>
      <trkpt lat="41.58955" lon="8.96428">
        <ele>458.21</ele>
        <time>2026-05-08T09:33:44Z</time>
      </trkpt>
      <trkpt lat="41.58957" lon="8.96438">
        <ele>458.21</ele>
        <time>2026-05-08T09:33:55Z</time>
      </trkpt>
      <trkpt lat="41.5896" lon="8.96452">
        <ele>460.61</ele>
        <time>2026-05-08T09:34:10Z</time>
      </trkpt>
      <trkpt lat="41.58963" lon="8.96463">
        <ele>460.61</ele>
        <time>2026-05-08T09:34:22Z</time>
      </trkpt>
      <trkpt lat="41.58965" lon="8.96472">
        <ele>462.05</ele>
        <time>2026-05-08T09:34:34Z</time>
      </trkpt>
      <trkpt lat="41.58966" lon="8.96477">
        <ele>463.01</ele>
        <time>2026-05-08T09:34:44Z</time>
      </trkpt>
      <trkpt lat="41.58967" lon="8.96486">
        <ele>463.97</ele>
        <time>2026-05-08T09:34:56Z</time>
      </trkpt>
      <trkpt lat="41.58967" lon="8.96498">
        <ele>464.93</ele>
        <time>2026-05-08T09:35:11Z</time>
      </trkpt>
      <trkpt lat="41.58966" lon="8.96506">
        <ele>465.9</ele>
        <time>2026-05-08T09:35:25Z</time>
      </trkpt>
      <trkpt lat="41.58967" lon="8.96513">
        <ele>464.45</ele>
        <time>2026-05-08T09:35:40Z</time>
      </trkpt>
      <trkpt lat="41.58967" lon="8.9652">
        <ele>464.45</ele>
        <time>2026-05-08T09:35:53Z</time>
      </trkpt>
      <trkpt lat="41.58966" lon="8.9653">
        <ele>467.34</ele>
        <time>2026-05-08T09:36:06Z</time>
      </trkpt>
      <trkpt lat="41.58967" lon="8.96539">
        <ele>469.26</ele>
        <time>2026-05-08T09:36:18Z</time>
      </trkpt>
      <trkpt lat="41.58967" lon="8.96546">
        <ele>469.74</ele>
        <time>2026-05-08T09:36:29Z</time>
      </trkpt>
      <trkpt lat="41.58969" lon="8.96554">
        <ele>469.26</ele>
        <time>2026-05-08T09:36:43Z</time>
      </trkpt>
      <trkpt lat="41.58968" lon="8.96557">
        <ele>472.63</ele>
        <time>2026-05-08T09:37:20Z</time>
      </trkpt>
      <trkpt lat="41.58972" lon="8.96558">
        <ele>475.03</ele>
        <time>2026-05-08T09:37:56Z</time>
      </trkpt>
      <trkpt lat="41.58972" lon="8.96555">
        <ele>478.87</ele>
        <time>2026-05-08T09:38:20Z</time>
      </trkpt>
      <trkpt lat="41.58971" lon="8.96562">
        <ele>479.84</ele>
        <time>2026-05-08T09:38:35Z</time>
      </trkpt>
      <trkpt lat="41.58971" lon="8.96572">
        <ele>482.24</ele>
        <time>2026-05-08T09:38:47Z</time>
      </trkpt>
      <trkpt lat="41.58971" lon="8.96581">
        <ele>485.12</ele>
        <time>2026-05-08T09:39:02Z</time>
      </trkpt>
      <trkpt lat="41.58969" lon="8.96586">
        <ele>484.64</ele>
        <time>2026-05-08T09:39:19Z</time>
      </trkpt>
      <trkpt lat="41.58971" lon="8.96588">
        <ele>484.16</ele>
        <time>2026-05-08T09:39:35Z</time>
      </trkpt>
      <trkpt lat="41.5897" lon="8.96589">
        <ele>482.72</ele>
        <time>2026-05-08T09:39:55Z</time>
      </trkpt>
      <trkpt lat="41.58971" lon="8.96586">
        <ele>483.2</ele>
        <time>2026-05-08T09:40:27Z</time>
      </trkpt>
      <trkpt lat="41.58969" lon="8.9659">
        <ele>484.64</ele>
        <time>2026-05-08T09:41:01Z</time>
      </trkpt>
      <trkpt lat="41.58963" lon="8.96597">
        <ele>483.2</ele>
        <time>2026-05-08T09:41:13Z</time>
      </trkpt>
      <trkpt lat="41.58962" lon="8.96606">
        <ele>484.16</ele>
        <time>2026-05-08T09:41:26Z</time>
      </trkpt>
      <trkpt lat="41.58965" lon="8.96618">
        <ele>483.68</ele>
        <time>2026-05-08T09:41:39Z</time>
      </trkpt>
      <trkpt lat="41.58968" lon="8.96629">
        <ele>483.2</ele>
        <time>2026-05-08T09:41:53Z</time>
      </trkpt>
      <trkpt lat="41.58974" lon="8.96635">
        <ele>483.68</ele>
        <time>2026-05-08T09:42:04Z</time>
      </trkpt>
      <trkpt lat="41.58979" lon="8.96632">
        <ele>484.64</ele>
        <time>2026-05-08T09:42:25Z</time>
      </trkpt>
      <trkpt lat="41.58976" lon="8.96636">
        <ele>483.68</ele>
        <time>2026-05-08T09:42:39Z</time>
      </trkpt>
      <trkpt lat="41.58976" lon="8.96637">
        <ele>482.72</ele>
        <time>2026-05-08T09:43:12Z</time>
      </trkpt>
      <trkpt lat="41.58976" lon="8.96636">
        <ele>482.24</ele>
        <time>2026-05-08T09:43:39Z</time>
      </trkpt>
      <trkpt lat="41.58973" lon="8.96641">
        <ele>483.2</ele>
        <time>2026-05-08T09:43:54Z</time>
      </trkpt>
      <trkpt lat="41.58971" lon="8.96649">
        <ele>485.6</ele>
        <time>2026-05-08T09:44:04Z</time>
      </trkpt>
      <trkpt lat="41.5897" lon="8.9665">
        <ele>486.08</ele>
        <time>2026-05-08T09:44:05Z</time>
      </trkpt>
      <trkpt lat="41.58969" lon="8.96657">
        <ele>487.05</ele>
        <time>2026-05-08T09:44:16Z</time>
      </trkpt>
      <trkpt lat="41.58968" lon="8.96664">
        <ele>489.45</ele>
        <time>2026-05-08T09:44:25Z</time>
      </trkpt>
      <trkpt lat="41.58968" lon="8.96669">
        <ele>490.89</ele>
        <time>2026-05-08T09:44:38Z</time>
      </trkpt>
      <trkpt lat="41.5897" lon="8.96674">
        <ele>489.45</ele>
        <time>2026-05-08T09:44:52Z</time>
      </trkpt>
      <trkpt lat="41.58971" lon="8.96677">
        <ele>488.49</ele>
        <time>2026-05-08T09:45:11Z</time>
      </trkpt>
      <trkpt lat="41.58969" lon="8.96681">
        <ele>488.97</ele>
        <time>2026-05-08T09:45:33Z</time>
      </trkpt>
      <trkpt lat="41.58966" lon="8.9668">
        <ele>491.37</ele>
        <time>2026-05-08T09:45:44Z</time>
      </trkpt>
      <trkpt lat="41.58961" lon="8.96684">
        <ele>492.33</ele>
        <time>2026-05-08T09:45:58Z</time>
      </trkpt>
      <trkpt lat="41.58959" lon="8.96683">
        <ele>495.22</ele>
        <time>2026-05-08T09:46:13Z</time>
      </trkpt>
      <trkpt lat="41.58959" lon="8.96681">
        <ele>495.22</ele>
        <time>2026-05-08T09:46:39Z</time>
      </trkpt>
      <trkpt lat="41.58956" lon="8.96682">
        <ele>496.18</ele>
        <time>2026-05-08T09:46:53Z</time>
      </trkpt>
      <trkpt lat="41.58953" lon="8.96686">
        <ele>494.74</ele>
        <time>2026-05-08T09:47:07Z</time>
      </trkpt>
      <trkpt lat="41.58954" lon="8.96687">
        <ele>494.26</ele>
        <time>2026-05-08T09:47:32Z</time>
      </trkpt>
      <trkpt lat="41.58953" lon="8.96688">
        <ele>494.74</ele>
        <time>2026-05-08T09:47:50Z</time>
      </trkpt>
      <trkpt lat="41.58956" lon="8.96687">
        <ele>493.29</ele>
        <time>2026-05-08T09:48:09Z</time>
      </trkpt>
      <trkpt lat="41.58955" lon="8.96685">
        <ele>494.74</ele>
        <time>2026-05-08T09:48:31Z</time>
      </trkpt>
      <trkpt lat="41.58954" lon="8.96682">
        <ele>496.18</ele>
        <time>2026-05-08T09:48:59Z</time>
      </trkpt>
      <trkpt lat="41.58951" lon="8.9668">
        <ele>496.18</ele>
        <time>2026-05-08T09:49:22Z</time>
      </trkpt>
      <trkpt lat="41.58958" lon="8.96688">
        <ele>495.22</ele>
        <time>2026-05-08T09:49:57Z</time>
      </trkpt>
      <trkpt lat="41.58958" lon="8.96686">
        <ele>494.26</ele>
        <time>2026-05-08T09:50:32Z</time>
      </trkpt>
      <trkpt lat="41.5896" lon="8.96686">
        <ele>493.29</ele>
        <time>2026-05-08T09:51:08Z</time>
      </trkpt>
      <trkpt lat="41.5896" lon="8.96687">
        <ele>495.7</ele>
        <time>2026-05-08T09:51:38Z</time>
      </trkpt>
      <trkpt lat="41.58958" lon="8.96686">
        <ele>497.14</ele>
        <time>2026-05-08T09:52:10Z</time>
      </trkpt>
      <trkpt lat="41.58955" lon="8.96689">
        <ele>496.66</ele>
        <time>2026-05-08T09:52:30Z</time>
      </trkpt>
      <trkpt lat="41.58958" lon="8.96689">
        <ele>494.74</ele>
        <time>2026-05-08T09:52:50Z</time>
      </trkpt>
      <trkpt lat="41.58956" lon="8.96687">
        <ele>494.26</ele>
        <time>2026-05-08T09:53:13Z</time>
      </trkpt>
      <trkpt lat="41.58954" lon="8.96683">
        <ele>496.66</ele>
        <time>2026-05-08T09:53:43Z</time>
      </trkpt>
      <trkpt lat="41.58955" lon="8.96679">
        <ele>497.14</ele>
        <time>2026-05-08T09:54:12Z</time>
      </trkpt>
      <trkpt lat="41.58953" lon="8.96679">
        <ele>498.1</ele>
        <time>2026-05-08T09:54:43Z</time>
      </trkpt>
      <trkpt lat="41.58955" lon="8.96682">
        <ele>497.62</ele>
        <time>2026-05-08T09:55:05Z</time>
      </trkpt>
      <trkpt lat="41.58954" lon="8.96682">
        <ele>497.14</ele>
        <time>2026-05-08T09:55:29Z</time>
      </trkpt>
      <trkpt lat="41.58954" lon="8.96683">
        <ele>496.66</ele>
        <time>2026-05-08T09:56:01Z</time>
      </trkpt>
      <trkpt lat="41.58952" lon="8.96682">
        <ele>497.14</ele>
        <time>2026-05-08T09:56:27Z</time>
      </trkpt>
      <trkpt lat="41.58948" lon="8.96683">
        <ele>497.62</ele>
        <time>2026-05-08T09:56:40Z</time>
      </trkpt>
      <trkpt lat="41.58944" lon="8.96683">
        <ele>498.58</ele>
        <time>2026-05-08T09:56:48Z</time>
      </trkpt>
      <trkpt lat="41.58937" lon="8.96684">
        <ele>500.5</ele>
        <time>2026-05-08T09:57:00Z</time>
      </trkpt>
      <trkpt lat="41.58932" lon="8.96691">
        <ele>501.95</ele>
        <time>2026-05-08T09:57:11Z</time>
      </trkpt>
      <trkpt lat="41.5893" lon="8.96698">
        <ele>502.91</ele>
        <time>2026-05-08T09:57:20Z</time>
      </trkpt>
      <trkpt lat="41.58932" lon="8.96706">
        <ele>504.83</ele>
        <time>2026-05-08T09:57:34Z</time>
      </trkpt>
      <trkpt lat="41.58933" lon="8.96715">
        <ele>504.83</ele>
        <time>2026-05-08T09:57:47Z</time>
      </trkpt>
      <trkpt lat="41.58934" lon="8.96723">
        <ele>504.83</ele>
        <time>2026-05-08T09:57:58Z</time>
      </trkpt>
      <trkpt lat="41.58939" lon="8.96728">
        <ele>503.87</ele>
        <time>2026-05-08T09:58:09Z</time>
      </trkpt>
      <trkpt lat="41.58944" lon="8.96732">
        <ele>503.39</ele>
        <time>2026-05-08T09:58:18Z</time>
      </trkpt>
      <trkpt lat="41.58946" lon="8.96735">
        <ele>503.87</ele>
        <time>2026-05-08T09:58:23Z</time>
      </trkpt>
      <trkpt lat="41.58953" lon="8.96736">
        <ele>501.95</ele>
        <time>2026-05-08T09:58:34Z</time>
      </trkpt>
      <trkpt lat="41.58953" lon="8.9674">
        <ele>499.54</ele>
        <time>2026-05-08T09:58:57Z</time>
      </trkpt>
      <trkpt lat="41.58952" lon="8.96736">
        <ele>502.43</ele>
        <time>2026-05-08T09:59:19Z</time>
      </trkpt>
      <trkpt lat="41.58948" lon="8.9673">
        <ele>503.87</ele>
        <time>2026-05-08T09:59:36Z</time>
      </trkpt>
      <trkpt lat="41.58942" lon="8.96728">
        <ele>503.87</ele>
        <time>2026-05-08T09:59:47Z</time>
      </trkpt>
      <trkpt lat="41.58936" lon="8.96728">
        <ele>505.31</ele>
        <time>2026-05-08T09:59:57Z</time>
      </trkpt>
      <trkpt lat="41.58932" lon="8.96728">
        <ele>505.31</ele>
        <time>2026-05-08T10:00:01Z</time>
      </trkpt>
      <trkpt lat="41.58929" lon="8.9673">
        <ele>506.27</ele>
        <time>2026-05-08T10:00:12Z</time>
      </trkpt>
      <trkpt lat="41.58926" lon="8.9673">
        <ele>504.83</ele>
        <time>2026-05-08T10:00:41Z</time>
      </trkpt>
      <trkpt lat="41.5892" lon="8.96727">
        <ele>504.35</ele>
        <time>2026-05-08T10:00:49Z</time>
      </trkpt>
      <trkpt lat="41.58918" lon="8.96725">
        <ele>504.83</ele>
        <time>2026-05-08T10:00:52Z</time>
      </trkpt>
      <trkpt lat="41.5891" lon="8.96725">
        <ele>505.79</ele>
        <time>2026-05-08T10:01:03Z</time>
      </trkpt>
      <trkpt lat="41.58908" lon="8.96724">
        <ele>505.79</ele>
        <time>2026-05-08T10:01:05Z</time>
      </trkpt>
      <trkpt lat="41.58898" lon="8.96722">
        <ele>507.23</ele>
        <time>2026-05-08T10:01:16Z</time>
      </trkpt>
      <trkpt lat="41.58891" lon="8.96722">
        <ele>507.23</ele>
        <time>2026-05-08T10:01:29Z</time>
      </trkpt>
      <trkpt lat="41.58883" lon="8.96725">
        <ele>508.67</ele>
        <time>2026-05-08T10:01:39Z</time>
      </trkpt>
      <trkpt lat="41.58876" lon="8.96725">
        <ele>508.67</ele>
        <time>2026-05-08T10:01:52Z</time>
      </trkpt>
      <trkpt lat="41.58875" lon="8.96724">
        <ele>508.19</ele>
        <time>2026-05-08T10:01:58Z</time>
      </trkpt>
      <trkpt lat="41.58868" lon="8.96722">
        <ele>506.75</ele>
        <time>2026-05-08T10:02:09Z</time>
      </trkpt>
      <trkpt lat="41.58863" lon="8.96719">
        <ele>506.75</ele>
        <time>2026-05-08T10:02:21Z</time>
      </trkpt>
      <trkpt lat="41.58858" lon="8.96716">
        <ele>506.75</ele>
        <time>2026-05-08T10:02:34Z</time>
      </trkpt>
      <trkpt lat="41.58848" lon="8.96711">
        <ele>505.79</ele>
        <time>2026-05-08T10:02:51Z</time>
      </trkpt>
      <trkpt lat="41.58838" lon="8.96706">
        <ele>504.35</ele>
        <time>2026-05-08T10:03:03Z</time>
      </trkpt>
      <trkpt lat="41.58829" lon="8.96703">
        <ele>502.91</ele>
        <time>2026-05-08T10:03:15Z</time>
      </trkpt>
      <trkpt lat="41.58823" lon="8.967">
        <ele>506.75</ele>
        <time>2026-05-08T10:03:36Z</time>
      </trkpt>
      <trkpt lat="41.58815" lon="8.96703">
        <ele>507.71</ele>
        <time>2026-05-08T10:03:50Z</time>
      </trkpt>
      <trkpt lat="41.58807" lon="8.96704">
        <ele>508.67</ele>
        <time>2026-05-08T10:04:01Z</time>
      </trkpt>
      <trkpt lat="41.58799" lon="8.96703">
        <ele>509.64</ele>
        <time>2026-05-08T10:04:11Z</time>
      </trkpt>
      <trkpt lat="41.58792" lon="8.96705">
        <ele>510.6</ele>
        <time>2026-05-08T10:04:23Z</time>
      </trkpt>
      <trkpt lat="41.58792" lon="8.96703">
        <ele>511.08</ele>
        <time>2026-05-08T10:04:38Z</time>
      </trkpt>
      <trkpt lat="41.58787" lon="8.96695">
        <ele>509.64</ele>
        <time>2026-05-08T10:04:53Z</time>
      </trkpt>
      <trkpt lat="41.58782" lon="8.96679">
        <ele>505.79</ele>
        <time>2026-05-08T10:05:10Z</time>
      </trkpt>
      <trkpt lat="41.58773" lon="8.96675">
        <ele>504.35</ele>
        <time>2026-05-08T10:05:21Z</time>
      </trkpt>
      <trkpt lat="41.58764" lon="8.96669">
        <ele>504.35</ele>
        <time>2026-05-08T10:05:36Z</time>
      </trkpt>
      <trkpt lat="41.58755" lon="8.96668">
        <ele>506.75</ele>
        <time>2026-05-08T10:05:50Z</time>
      </trkpt>
      <trkpt lat="41.58752" lon="8.96669">
        <ele>511.08</ele>
        <time>2026-05-08T10:06:06Z</time>
      </trkpt>
      <trkpt lat="41.58753" lon="8.96673">
        <ele>512.04</ele>
        <time>2026-05-08T10:06:32Z</time>
      </trkpt>
      <trkpt lat="41.5876" lon="8.96671">
        <ele>516.37</ele>
        <time>2026-05-08T10:07:04Z</time>
      </trkpt>
      <trkpt lat="41.58752" lon="8.96669">
        <ele>511.56</ele>
        <time>2026-05-08T10:07:25Z</time>
      </trkpt>
      <trkpt lat="41.58746" lon="8.96664">
        <ele>513</ele>
        <time>2026-05-08T10:07:54Z</time>
      </trkpt>
      <trkpt lat="41.58742" lon="8.96666">
        <ele>513.96</ele>
        <time>2026-05-08T10:08:05Z</time>
      </trkpt>
      <trkpt lat="41.58737" lon="8.96659">
        <ele>515.88</ele>
        <time>2026-05-08T10:08:17Z</time>
      </trkpt>
      <trkpt lat="41.5873" lon="8.96658">
        <ele>517.81</ele>
        <time>2026-05-08T10:08:32Z</time>
      </trkpt>
      <trkpt lat="41.58726" lon="8.96658">
        <ele>518.29</ele>
        <time>2026-05-08T10:08:49Z</time>
      </trkpt>
      <trkpt lat="41.58722" lon="8.96658">
        <ele>519.73</ele>
        <time>2026-05-08T10:09:11Z</time>
      </trkpt>
      <trkpt lat="41.58725" lon="8.96666">
        <ele>519.73</ele>
        <time>2026-05-08T10:09:45Z</time>
      </trkpt>
      <trkpt lat="41.58728" lon="8.96655">
        <ele>522.61</ele>
        <time>2026-05-08T10:10:04Z</time>
      </trkpt>
      <trkpt lat="41.58724" lon="8.96654">
        <ele>522.13</ele>
        <time>2026-05-08T10:10:22Z</time>
      </trkpt>
      <trkpt lat="41.5872" lon="8.9665">
        <ele>521.65</ele>
        <time>2026-05-08T10:10:36Z</time>
      </trkpt>
      <trkpt lat="41.58714" lon="8.96653">
        <ele>523.09</ele>
        <time>2026-05-08T10:10:51Z</time>
      </trkpt>
      <trkpt lat="41.58708" lon="8.96649">
        <ele>525.98</ele>
        <time>2026-05-08T10:11:09Z</time>
      </trkpt>
      <trkpt lat="41.58702" lon="8.96647">
        <ele>526.94</ele>
        <time>2026-05-08T10:11:29Z</time>
      </trkpt>
      <trkpt lat="41.58695" lon="8.9664">
        <ele>525.5</ele>
        <time>2026-05-08T10:11:46Z</time>
      </trkpt>
      <trkpt lat="41.58689" lon="8.96637">
        <ele>528.38</ele>
        <time>2026-05-08T10:12:04Z</time>
      </trkpt>
      <trkpt lat="41.58682" lon="8.96638">
        <ele>531.75</ele>
        <time>2026-05-08T10:12:20Z</time>
      </trkpt>
      <trkpt lat="41.58675" lon="8.96638">
        <ele>533.67</ele>
        <time>2026-05-08T10:12:36Z</time>
      </trkpt>
      <trkpt lat="41.5867" lon="8.96638">
        <ele>537.03</ele>
        <time>2026-05-08T10:12:52Z</time>
      </trkpt>
      <trkpt lat="41.58665" lon="8.96645">
        <ele>537.51</ele>
        <time>2026-05-08T10:13:11Z</time>
      </trkpt>
      <trkpt lat="41.58661" lon="8.96651">
        <ele>538.48</ele>
        <time>2026-05-08T10:13:27Z</time>
      </trkpt>
      <trkpt lat="41.58657" lon="8.9665">
        <ele>539.44</ele>
        <time>2026-05-08T10:13:42Z</time>
      </trkpt>
      <trkpt lat="41.58656" lon="8.96658">
        <ele>542.32</ele>
        <time>2026-05-08T10:14:07Z</time>
      </trkpt>
      <trkpt lat="41.58653" lon="8.96652">
        <ele>540.88</ele>
        <time>2026-05-08T10:14:29Z</time>
      </trkpt>
      <trkpt lat="41.5865" lon="8.96646">
        <ele>541.84</ele>
        <time>2026-05-08T10:14:42Z</time>
      </trkpt>
      <trkpt lat="41.58642" lon="8.9664">
        <ele>544.24</ele>
        <time>2026-05-08T10:14:58Z</time>
      </trkpt>
      <trkpt lat="41.58637" lon="8.96636">
        <ele>546.17</ele>
        <time>2026-05-08T10:15:13Z</time>
      </trkpt>
      <trkpt lat="41.58635" lon="8.96635">
        <ele>546.65</ele>
        <time>2026-05-08T10:15:30Z</time>
      </trkpt>
      <trkpt lat="41.5863" lon="8.96636">
        <ele>549.05</ele>
        <time>2026-05-08T10:15:47Z</time>
      </trkpt>
      <trkpt lat="41.58627" lon="8.96635">
        <ele>548.09</ele>
        <time>2026-05-08T10:16:00Z</time>
      </trkpt>
      <trkpt lat="41.58626" lon="8.96633">
        <ele>549.05</ele>
        <time>2026-05-08T10:16:31Z</time>
      </trkpt>
      <trkpt lat="41.58619" lon="8.96633">
        <ele>549.53</ele>
        <time>2026-05-08T10:16:50Z</time>
      </trkpt>
      <trkpt lat="41.58613" lon="8.96636">
        <ele>550.49</ele>
        <time>2026-05-08T10:17:01Z</time>
      </trkpt>
      <trkpt lat="41.58606" lon="8.96643">
        <ele>553.86</ele>
        <time>2026-05-08T10:17:15Z</time>
      </trkpt>
      <trkpt lat="41.586" lon="8.9665">
        <ele>553.86</ele>
        <time>2026-05-08T10:17:30Z</time>
      </trkpt>
      <trkpt lat="41.58594" lon="8.96654">
        <ele>554.82</ele>
        <time>2026-05-08T10:17:45Z</time>
      </trkpt>
      <trkpt lat="41.58589" lon="8.96653">
        <ele>558.18</ele>
        <time>2026-05-08T10:18:02Z</time>
      </trkpt>
      <trkpt lat="41.58585" lon="8.96648">
        <ele>561.07</ele>
        <time>2026-05-08T10:18:20Z</time>
      </trkpt>
      <trkpt lat="41.58577" lon="8.96642">
        <ele>560.59</ele>
        <time>2026-05-08T10:18:33Z</time>
      </trkpt>
      <trkpt lat="41.58568" lon="8.96637">
        <ele>559.62</ele>
        <time>2026-05-08T10:18:47Z</time>
      </trkpt>
      <trkpt lat="41.58561" lon="8.96641">
        <ele>559.62</ele>
        <time>2026-05-08T10:18:59Z</time>
      </trkpt>
      <trkpt lat="41.58554" lon="8.96639">
        <ele>561.07</ele>
        <time>2026-05-08T10:19:10Z</time>
      </trkpt>
      <trkpt lat="41.58553" lon="8.96637">
        <ele>562.51</ele>
        <time>2026-05-08T10:19:29Z</time>
      </trkpt>
      <trkpt lat="41.58553" lon="8.96636">
        <ele>562.51</ele>
        <time>2026-05-08T10:19:56Z</time>
      </trkpt>
      <trkpt lat="41.5855" lon="8.96634">
        <ele>562.51</ele>
        <time>2026-05-08T10:20:11Z</time>
      </trkpt>
      <trkpt lat="41.58556" lon="8.96643">
        <ele>559.62</ele>
        <time>2026-05-08T10:20:23Z</time>
      </trkpt>
      <trkpt lat="41.58561" lon="8.96653">
        <ele>558.18</ele>
        <time>2026-05-08T10:20:39Z</time>
      </trkpt>
      <trkpt lat="41.58559" lon="8.96653">
        <ele>554.34</ele>
        <time>2026-05-08T10:21:01Z</time>
      </trkpt>
      <trkpt lat="41.5856" lon="8.96643">
        <ele>557.22</ele>
        <time>2026-05-08T10:21:19Z</time>
      </trkpt>
      <trkpt lat="41.58555" lon="8.96637">
        <ele>559.14</ele>
        <time>2026-05-08T10:21:28Z</time>
      </trkpt>
      <trkpt lat="41.58554" lon="8.96632">
        <ele>560.11</ele>
        <time>2026-05-08T10:21:33Z</time>
      </trkpt>
      <trkpt lat="41.58551" lon="8.96628">
        <ele>560.11</ele>
        <time>2026-05-08T10:21:49Z</time>
      </trkpt>
      <trkpt lat="41.58547" lon="8.96626">
        <ele>560.11</ele>
        <time>2026-05-08T10:22:05Z</time>
      </trkpt>
      <trkpt lat="41.58539" lon="8.96629">
        <ele>559.62</ele>
        <time>2026-05-08T10:22:19Z</time>
      </trkpt>
      <trkpt lat="41.58536" lon="8.96629">
        <ele>559.62</ele>
        <time>2026-05-08T10:22:23Z</time>
      </trkpt>
      <trkpt lat="41.58531" lon="8.96632">
        <ele>559.62</ele>
        <time>2026-05-08T10:22:33Z</time>
      </trkpt>
      <trkpt lat="41.58528" lon="8.96641">
        <ele>560.11</ele>
        <time>2026-05-08T10:22:45Z</time>
      </trkpt>
      <trkpt lat="41.58523" lon="8.96649">
        <ele>561.07</ele>
        <time>2026-05-08T10:23:03Z</time>
      </trkpt>
      <trkpt lat="41.58517" lon="8.96659">
        <ele>562.51</ele>
        <time>2026-05-08T10:23:14Z</time>
      </trkpt>
      <trkpt lat="41.58516" lon="8.96668">
        <ele>561.07</ele>
        <time>2026-05-08T10:23:29Z</time>
      </trkpt>
      <trkpt lat="41.58513" lon="8.96672">
        <ele>561.55</ele>
        <time>2026-05-08T10:23:46Z</time>
      </trkpt>
      <trkpt lat="41.58513" lon="8.96674">
        <ele>562.99</ele>
        <time>2026-05-08T10:24:00Z</time>
      </trkpt>
      <trkpt lat="41.58513" lon="8.96675">
        <ele>563.47</ele>
        <time>2026-05-08T10:24:15Z</time>
      </trkpt>
      <trkpt lat="41.58513" lon="8.96673">
        <ele>562.03</ele>
        <time>2026-05-08T10:24:41Z</time>
      </trkpt>
      <trkpt lat="41.58511" lon="8.96669">
        <ele>560.11</ele>
        <time>2026-05-08T10:24:59Z</time>
      </trkpt>
      <trkpt lat="41.58512" lon="8.96664">
        <ele>560.11</ele>
        <time>2026-05-08T10:25:10Z</time>
      </trkpt>
      <trkpt lat="41.58511" lon="8.96655">
        <ele>560.59</ele>
        <time>2026-05-08T10:25:22Z</time>
      </trkpt>
      <trkpt lat="41.5851" lon="8.96649">
        <ele>560.11</ele>
        <time>2026-05-08T10:25:31Z</time>
      </trkpt>
      <trkpt lat="41.58506" lon="8.96639">
        <ele>559.62</ele>
        <time>2026-05-08T10:25:42Z</time>
      </trkpt>
      <trkpt lat="41.58501" lon="8.9663">
        <ele>562.99</ele>
        <time>2026-05-08T10:25:53Z</time>
      </trkpt>
      <trkpt lat="41.58496" lon="8.96621">
        <ele>564.91</ele>
        <time>2026-05-08T10:26:04Z</time>
      </trkpt>
      <trkpt lat="41.58491" lon="8.96613">
        <ele>566.35</ele>
        <time>2026-05-08T10:26:16Z</time>
      </trkpt>
      <trkpt lat="41.58484" lon="8.96605">
        <ele>567.32</ele>
        <time>2026-05-08T10:26:29Z</time>
      </trkpt>
      <trkpt lat="41.58483" lon="8.96604">
        <ele>567.32</ele>
        <time>2026-05-08T10:26:45Z</time>
      </trkpt>
      <trkpt lat="41.58477" lon="8.96598">
        <ele>567.8</ele>
        <time>2026-05-08T10:26:56Z</time>
      </trkpt>
      <trkpt lat="41.58473" lon="8.96594">
        <ele>567.8</ele>
        <time>2026-05-08T10:27:07Z</time>
      </trkpt>
      <trkpt lat="41.58465" lon="8.96587">
        <ele>567.8</ele>
        <time>2026-05-08T10:27:17Z</time>
      </trkpt>
      <trkpt lat="41.58458" lon="8.96581">
        <ele>567.32</ele>
        <time>2026-05-08T10:27:27Z</time>
      </trkpt>
      <trkpt lat="41.58458" lon="8.96581">
        <ele>568.28</ele>
        <time>2026-05-08T10:27:44Z</time>
      </trkpt>
      <trkpt lat="41.58452" lon="8.96574">
        <ele>568.28</ele>
        <time>2026-05-08T10:27:55Z</time>
      </trkpt>
      <trkpt lat="41.58451" lon="8.96573">
        <ele>568.28</ele>
        <time>2026-05-08T10:28:01Z</time>
      </trkpt>
      <trkpt lat="41.58451" lon="8.96571">
        <ele>568.28</ele>
        <time>2026-05-08T10:28:03Z</time>
      </trkpt>
      <trkpt lat="41.58445" lon="8.96565">
        <ele>567.32</ele>
        <time>2026-05-08T10:28:11Z</time>
      </trkpt>
      <trkpt lat="41.58442" lon="8.9656">
        <ele>567.32</ele>
        <time>2026-05-08T10:28:20Z</time>
      </trkpt>
      <trkpt lat="41.58441" lon="8.96559">
        <ele>567.32</ele>
        <time>2026-05-08T10:28:22Z</time>
      </trkpt>
      <trkpt lat="41.5844" lon="8.96557">
        <ele>568.28</ele>
        <time>2026-05-08T10:28:36Z</time>
      </trkpt>
      <trkpt lat="41.58437" lon="8.96552">
        <ele>567.8</ele>
        <time>2026-05-08T10:28:46Z</time>
      </trkpt>
      <trkpt lat="41.58436" lon="8.96551">
        <ele>568.28</ele>
        <time>2026-05-08T10:29:01Z</time>
      </trkpt>
      <trkpt lat="41.58432" lon="8.96545">
        <ele>567.8</ele>
        <time>2026-05-08T10:29:21Z</time>
      </trkpt>
      <trkpt lat="41.58428" lon="8.96542">
        <ele>567.8</ele>
        <time>2026-05-08T10:29:33Z</time>
      </trkpt>
      <trkpt lat="41.58423" lon="8.96536">
        <ele>568.28</ele>
        <time>2026-05-08T10:29:43Z</time>
      </trkpt>
      <trkpt lat="41.58415" lon="8.96526">
        <ele>568.28</ele>
        <time>2026-05-08T10:29:55Z</time>
      </trkpt>
      <trkpt lat="41.58408" lon="8.96522">
        <ele>569.72</ele>
        <time>2026-05-08T10:30:06Z</time>
      </trkpt>
      <trkpt lat="41.58403" lon="8.96523">
        <ele>569.24</ele>
        <time>2026-05-08T10:30:21Z</time>
      </trkpt>
      <trkpt lat="41.58402" lon="8.96525">
        <ele>569.72</ele>
        <time>2026-05-08T10:30:35Z</time>
      </trkpt>
      <trkpt lat="41.58404" lon="8.96525">
        <ele>571.64</ele>
        <time>2026-05-08T10:30:54Z</time>
      </trkpt>
      <trkpt lat="41.58405" lon="8.96526">
        <ele>569.72</ele>
        <time>2026-05-08T10:31:23Z</time>
      </trkpt>
      <trkpt lat="41.58403" lon="8.96528">
        <ele>567.8</ele>
        <time>2026-05-08T10:31:48Z</time>
      </trkpt>
      <trkpt lat="41.58403" lon="8.96527">
        <ele>569.24</ele>
        <time>2026-05-08T10:32:20Z</time>
      </trkpt>
      <trkpt lat="41.58402" lon="8.96526">
        <ele>568.76</ele>
        <time>2026-05-08T10:32:46Z</time>
      </trkpt>
      <trkpt lat="41.58403" lon="8.96527">
        <ele>569.72</ele>
        <time>2026-05-08T10:33:10Z</time>
      </trkpt>
      <trkpt lat="41.58397" lon="8.9652">
        <ele>569.72</ele>
        <time>2026-05-08T10:33:26Z</time>
      </trkpt>
      <trkpt lat="41.58389" lon="8.96515">
        <ele>569.72</ele>
        <time>2026-05-08T10:33:39Z</time>
      </trkpt>
      <trkpt lat="41.58383" lon="8.96512">
        <ele>569.24</ele>
        <time>2026-05-08T10:33:49Z</time>
      </trkpt>
      <trkpt lat="41.58379" lon="8.9651">
        <ele>569.72</ele>
        <time>2026-05-08T10:34:02Z</time>
      </trkpt>
      <trkpt lat="41.5838" lon="8.9651">
        <ele>569.72</ele>
        <time>2026-05-08T10:34:05Z</time>
      </trkpt>
      <trkpt lat="41.58385" lon="8.96514">
        <ele>569.24</ele>
        <time>2026-05-08T10:34:16Z</time>
      </trkpt>
      <trkpt lat="41.58388" lon="8.96514">
        <ele>569.72</ele>
        <time>2026-05-08T10:34:21Z</time>
      </trkpt>
      <trkpt lat="41.58387" lon="8.96506">
        <ele>569.72</ele>
        <time>2026-05-08T10:34:34Z</time>
      </trkpt>
      <trkpt lat="41.58387" lon="8.96498">
        <ele>570.2</ele>
        <time>2026-05-08T10:34:47Z</time>
      </trkpt>
      <trkpt lat="41.58387" lon="8.96495">
        <ele>570.2</ele>
        <time>2026-05-08T10:34:51Z</time>
      </trkpt>
      <trkpt lat="41.58388" lon="8.96487">
        <ele>571.16</ele>
        <time>2026-05-08T10:35:05Z</time>
      </trkpt>
      <trkpt lat="41.58389" lon="8.9648">
        <ele>571.64</ele>
        <time>2026-05-08T10:35:20Z</time>
      </trkpt>
      <trkpt lat="41.58389" lon="8.9648">
        <ele>572.6</ele>
        <time>2026-05-08T10:35:47Z</time>
      </trkpt>
      <trkpt lat="41.58389" lon="8.96478">
        <ele>572.6</ele>
        <time>2026-05-08T10:36:07Z</time>
      </trkpt>
      <trkpt lat="41.58392" lon="8.96474">
        <ele>572.12</ele>
        <time>2026-05-08T10:36:19Z</time>
      </trkpt>
      <trkpt lat="41.58392" lon="8.96475">
        <ele>571.64</ele>
        <time>2026-05-08T10:36:27Z</time>
      </trkpt>
      <trkpt lat="41.58388" lon="8.96475">
        <ele>571.64</ele>
        <time>2026-05-08T10:36:40Z</time>
      </trkpt>
      <trkpt lat="41.58388" lon="8.96474">
        <ele>572.6</ele>
        <time>2026-05-08T10:36:57Z</time>
      </trkpt>
      <trkpt lat="41.58387" lon="8.96473">
        <ele>573.08</ele>
        <time>2026-05-08T10:37:16Z</time>
      </trkpt>
      <trkpt lat="41.58385" lon="8.96479">
        <ele>571.16</ele>
        <time>2026-05-08T10:37:31Z</time>
      </trkpt>
      <trkpt lat="41.58381" lon="8.96484">
        <ele>570.2</ele>
        <time>2026-05-08T10:37:49Z</time>
      </trkpt>
      <trkpt lat="41.58383" lon="8.96487">
        <ele>570.68</ele>
        <time>2026-05-08T10:38:09Z</time>
      </trkpt>
      <trkpt lat="41.58385" lon="8.96492">
        <ele>571.64</ele>
        <time>2026-05-08T10:38:20Z</time>
      </trkpt>
      <trkpt lat="41.58386" lon="8.96502">
        <ele>570.2</ele>
        <time>2026-05-08T10:38:32Z</time>
      </trkpt>
      <trkpt lat="41.58388" lon="8.96511">
        <ele>568.76</ele>
        <time>2026-05-08T10:38:46Z</time>
      </trkpt>
      <trkpt lat="41.58387" lon="8.96513">
        <ele>568.28</ele>
        <time>2026-05-08T10:38:50Z</time>
      </trkpt>
      <trkpt lat="41.58379" lon="8.9651">
        <ele>567.8</ele>
        <time>2026-05-08T10:39:02Z</time>
      </trkpt>
      <trkpt lat="41.58377" lon="8.96508">
        <ele>568.28</ele>
        <time>2026-05-08T10:39:15Z</time>
      </trkpt>
      <trkpt lat="41.58378" lon="8.96508">
        <ele>569.24</ele>
        <time>2026-05-08T10:39:40Z</time>
      </trkpt>
      <trkpt lat="41.58377" lon="8.9651">
        <ele>570.68</ele>
        <time>2026-05-08T10:40:13Z</time>
      </trkpt>
      <trkpt lat="41.58377" lon="8.96508">
        <ele>572.6</ele>
        <time>2026-05-08T10:40:39Z</time>
      </trkpt>
      <trkpt lat="41.58372" lon="8.96506">
        <ele>572.12</ele>
        <time>2026-05-08T10:40:49Z</time>
      </trkpt>
      <trkpt lat="41.58367" lon="8.96503">
        <ele>570.68</ele>
        <time>2026-05-08T10:41:01Z</time>
      </trkpt>
      <trkpt lat="41.58368" lon="8.96504">
        <ele>569.72</ele>
        <time>2026-05-08T10:41:17Z</time>
      </trkpt>
      <trkpt lat="41.58368" lon="8.96506">
        <ele>570.2</ele>
        <time>2026-05-08T10:41:46Z</time>
      </trkpt>
      <trkpt lat="41.58368" lon="8.96504">
        <ele>571.64</ele>
        <time>2026-05-08T10:42:02Z</time>
      </trkpt>
      <trkpt lat="41.58368" lon="8.96503">
        <ele>573.08</ele>
        <time>2026-05-08T10:42:35Z</time>
      </trkpt>
      <trkpt lat="41.58372" lon="8.96507">
        <ele>573.08</ele>
        <time>2026-05-08T10:42:53Z</time>
      </trkpt>
      <trkpt lat="41.58372" lon="8.96507">
        <ele>572.12</ele>
        <time>2026-05-08T10:43:15Z</time>
      </trkpt>
      <trkpt lat="41.58379" lon="8.96509">
        <ele>570.2</ele>
        <time>2026-05-08T10:43:27Z</time>
      </trkpt>
      <trkpt lat="41.58382" lon="8.96511">
        <ele>570.68</ele>
        <time>2026-05-08T10:43:38Z</time>
      </trkpt>
      <trkpt lat="41.58387" lon="8.96519">
        <ele>570.2</ele>
        <time>2026-05-08T10:43:52Z</time>
      </trkpt>
      <trkpt lat="41.58389" lon="8.96527">
        <ele>568.76</ele>
        <time>2026-05-08T10:44:03Z</time>
      </trkpt>
      <trkpt lat="41.5839" lon="8.96538">
        <ele>568.76</ele>
        <time>2026-05-08T10:44:15Z</time>
      </trkpt>
      <trkpt lat="41.58388" lon="8.96546">
        <ele>568.76</ele>
        <time>2026-05-08T10:44:27Z</time>
      </trkpt>
      <trkpt lat="41.58389" lon="8.96545">
        <ele>568.28</ele>
        <time>2026-05-08T10:44:42Z</time>
      </trkpt>
      <trkpt lat="41.58389" lon="8.96539">
        <ele>567.32</ele>
        <time>2026-05-08T10:44:49Z</time>
      </trkpt>
      <trkpt lat="41.5839" lon="8.96534">
        <ele>567.8</ele>
        <time>2026-05-08T10:44:55Z</time>
      </trkpt>
      <trkpt lat="41.58395" lon="8.96527">
        <ele>569.24</ele>
        <time>2026-05-08T10:45:07Z</time>
      </trkpt>
      <trkpt lat="41.58397" lon="8.96515">
        <ele>569.24</ele>
        <time>2026-05-08T10:45:20Z</time>
      </trkpt>
      <trkpt lat="41.5839" lon="8.96514">
        <ele>569.24</ele>
        <time>2026-05-08T10:45:35Z</time>
      </trkpt>
      <trkpt lat="41.58389" lon="8.96511">
        <ele>570.2</ele>
        <time>2026-05-08T10:45:42Z</time>
      </trkpt>
      <trkpt lat="41.58387" lon="8.96504">
        <ele>571.16</ele>
        <time>2026-05-08T10:45:52Z</time>
      </trkpt>
      <trkpt lat="41.58388" lon="8.96496">
        <ele>572.6</ele>
        <time>2026-05-08T10:46:05Z</time>
      </trkpt>
      <trkpt lat="41.58387" lon="8.96489">
        <ele>573.08</ele>
        <time>2026-05-08T10:46:15Z</time>
      </trkpt>
      <trkpt lat="41.58389" lon="8.96485">
        <ele>573.08</ele>
        <time>2026-05-08T10:46:27Z</time>
      </trkpt>
      <trkpt lat="41.58389" lon="8.96482">
        <ele>573.08</ele>
        <time>2026-05-08T10:46:31Z</time>
      </trkpt>
      <trkpt lat="41.58387" lon="8.96477">
        <ele>573.56</ele>
        <time>2026-05-08T10:46:47Z</time>
      </trkpt>
      <trkpt lat="41.58388" lon="8.96474">
        <ele>573.56</ele>
        <time>2026-05-08T10:46:58Z</time>
      </trkpt>
      <trkpt lat="41.58386" lon="8.96472">
        <ele>574.53</ele>
        <time>2026-05-08T10:47:11Z</time>
      </trkpt>
      <trkpt lat="41.58387" lon="8.9647">
        <ele>574.04</ele>
        <time>2026-05-08T10:47:31Z</time>
      </trkpt>
      <trkpt lat="41.58388" lon="8.96468">
        <ele>572.6</ele>
        <time>2026-05-08T10:47:47Z</time>
      </trkpt>
      <trkpt lat="41.58387" lon="8.96465">
        <ele>573.56</ele>
        <time>2026-05-08T10:47:59Z</time>
      </trkpt>
      <trkpt lat="41.58384" lon="8.96463">
        <ele>572.6</ele>
        <time>2026-05-08T10:48:12Z</time>
      </trkpt>
      <trkpt lat="41.58384" lon="8.96464">
        <ele>571.64</ele>
        <time>2026-05-08T10:48:42Z</time>
      </trkpt>
      <trkpt lat="41.58383" lon="8.96461">
        <ele>573.08</ele>
        <time>2026-05-08T10:49:10Z</time>
      </trkpt>
      <trkpt lat="41.58383" lon="8.96463">
        <ele>572.12</ele>
        <time>2026-05-08T10:49:40Z</time>
      </trkpt>
      <trkpt lat="41.58384" lon="8.96464">
        <ele>571.64</ele>
        <time>2026-05-08T10:50:03Z</time>
      </trkpt>
      <trkpt lat="41.58385" lon="8.96464">
        <ele>574.04</ele>
        <time>2026-05-08T10:50:28Z</time>
      </trkpt>
      <trkpt lat="41.58385" lon="8.96465">
        <ele>574.53</ele>
        <time>2026-05-08T10:50:45Z</time>
      </trkpt>
      <trkpt lat="41.58385" lon="8.96464">
        <ele>574.53</ele>
        <time>2026-05-08T10:51:05Z</time>
      </trkpt>
      <trkpt lat="41.58385" lon="8.96464">
        <ele>574.04</ele>
        <time>2026-05-08T10:51:22Z</time>
      </trkpt>
      <trkpt lat="41.58385" lon="8.96465">
        <ele>575.01</ele>
        <time>2026-05-08T10:51:43Z</time>
      </trkpt>
      <trkpt lat="41.58384" lon="8.96465">
        <ele>574.53</ele>
        <time>2026-05-08T10:52:01Z</time>
      </trkpt>
      <trkpt lat="41.58384" lon="8.96465">
        <ele>574.53</ele>
        <time>2026-05-08T10:52:24Z</time>
      </trkpt>
      <trkpt lat="41.58384" lon="8.96465">
        <ele>574.04</ele>
        <time>2026-05-08T10:52:49Z</time>
      </trkpt>
      <trkpt lat="41.58384" lon="8.96465">
        <ele>574.04</ele>
        <time>2026-05-08T10:53:13Z</time>
      </trkpt>
      <trkpt lat="41.58384" lon="8.96464">
        <ele>574.04</ele>
        <time>2026-05-08T10:53:31Z</time>
      </trkpt>
      <trkpt lat="41.58385" lon="8.96464">
        <ele>574.04</ele>
        <time>2026-05-08T10:53:58Z</time>
      </trkpt>
      <trkpt lat="41.58386" lon="8.96464">
        <ele>575.01</ele>
        <time>2026-05-08T10:54:18Z</time>
      </trkpt>
      <trkpt lat="41.58386" lon="8.96464">
        <ele>575.01</ele>
        <time>2026-05-08T10:54:39Z</time>
      </trkpt>
      <trkpt lat="41.58386" lon="8.96464">
        <ele>574.53</ele>
        <time>2026-05-08T10:55:08Z</time>
      </trkpt>
      <trkpt lat="41.58385" lon="8.96465">
        <ele>575.01</ele>
        <time>2026-05-08T10:55:38Z</time>
      </trkpt>
      <trkpt lat="41.58385" lon="8.96464">
        <ele>574.53</ele>
        <time>2026-05-08T10:56:13Z</time>
      </trkpt>
      <trkpt lat="41.58386" lon="8.96465">
        <ele>574.53</ele>
        <time>2026-05-08T10:56:35Z</time>
      </trkpt>
      <trkpt lat="41.58385" lon="8.96464">
        <ele>573.56</ele>
        <time>2026-05-08T10:57:03Z</time>
      </trkpt>
      <trkpt lat="41.58385" lon="8.96464">
        <ele>573.08</ele>
        <time>2026-05-08T10:57:24Z</time>
      </trkpt>
      <trkpt lat="41.58385" lon="8.96465">
        <ele>573.08</ele>
        <time>2026-05-08T10:57:42Z</time>
      </trkpt>
      <trkpt lat="41.58386" lon="8.96464">
        <ele>574.04</ele>
        <time>2026-05-08T10:58:04Z</time>
      </trkpt>
      <trkpt lat="41.58385" lon="8.96464">
        <ele>573.56</ele>
        <time>2026-05-08T10:58:32Z</time>
      </trkpt>
      <trkpt lat="41.58385" lon="8.96464">
        <ele>573.56</ele>
        <time>2026-05-08T10:58:53Z</time>
      </trkpt>
      <trkpt lat="41.58386" lon="8.96463">
        <ele>573.08</ele>
        <time>2026-05-08T10:59:18Z</time>
      </trkpt>
      <trkpt lat="41.58386" lon="8.96464">
        <ele>574.04</ele>
        <time>2026-05-08T10:59:40Z</time>
      </trkpt>
      <trkpt lat="41.58385" lon="8.96465">
        <ele>575.01</ele>
        <time>2026-05-08T11:00:10Z</time>
      </trkpt>
      <trkpt lat="41.58384" lon="8.96465">
        <ele>574.53</ele>
        <time>2026-05-08T11:00:34Z</time>
      </trkpt>
      <trkpt lat="41.58384" lon="8.96465">
        <ele>574.04</ele>
        <time>2026-05-08T11:01:07Z</time>
      </trkpt>
      <trkpt lat="41.58384" lon="8.96466">
        <ele>574.53</ele>
        <time>2026-05-08T11:01:31Z</time>
      </trkpt>
      <trkpt lat="41.58384" lon="8.96466">
        <ele>575.01</ele>
        <time>2026-05-08T11:01:57Z</time>
      </trkpt>
      <trkpt lat="41.58384" lon="8.96465">
        <ele>574.53</ele>
        <time>2026-05-08T11:02:16Z</time>
      </trkpt>
      <trkpt lat="41.58384" lon="8.96465">
        <ele>574.04</ele>
        <time>2026-05-08T11:02:37Z</time>
      </trkpt>
      <trkpt lat="41.58385" lon="8.96463">
        <ele>575.01</ele>
        <time>2026-05-08T11:03:02Z</time>
      </trkpt>
      <trkpt lat="41.58386" lon="8.96463">
        <ele>575.49</ele>
        <time>2026-05-08T11:03:28Z</time>
      </trkpt>
      <trkpt lat="41.58386" lon="8.96464">
        <ele>574.53</ele>
        <time>2026-05-08T11:03:54Z</time>
      </trkpt>
      <trkpt lat="41.58386" lon="8.96463">
        <ele>574.53</ele>
        <time>2026-05-08T11:04:12Z</time>
      </trkpt>
      <trkpt lat="41.58384" lon="8.96464">
        <ele>575.01</ele>
        <time>2026-05-08T11:04:31Z</time>
      </trkpt>
      <trkpt lat="41.58384" lon="8.96463">
        <ele>574.53</ele>
        <time>2026-05-08T11:05:16Z</time>
      </trkpt>
      <trkpt lat="41.58385" lon="8.96465">
        <ele>573.56</ele>
        <time>2026-05-08T11:05:50Z</time>
      </trkpt>
      <trkpt lat="41.58385" lon="8.96465">
        <ele>574.04</ele>
        <time>2026-05-08T11:06:14Z</time>
      </trkpt>
      <trkpt lat="41.58384" lon="8.96465">
        <ele>573.56</ele>
        <time>2026-05-08T11:06:36Z</time>
      </trkpt>
      <trkpt lat="41.58384" lon="8.96465">
        <ele>574.04</ele>
        <time>2026-05-08T11:06:59Z</time>
      </trkpt>
      <trkpt lat="41.58384" lon="8.96465">
        <ele>573.56</ele>
        <time>2026-05-08T11:07:30Z</time>
      </trkpt>
      <trkpt lat="41.58385" lon="8.96465">
        <ele>573.08</ele>
        <time>2026-05-08T11:07:57Z</time>
      </trkpt>
      <trkpt lat="41.58384" lon="8.96465">
        <ele>574.04</ele>
        <time>2026-05-08T11:08:23Z</time>
      </trkpt>
      <trkpt lat="41.58385" lon="8.96465">
        <ele>573.56</ele>
        <time>2026-05-08T11:08:51Z</time>
      </trkpt>
      <trkpt lat="41.58385" lon="8.96465">
        <ele>573.56</ele>
        <time>2026-05-08T11:09:13Z</time>
      </trkpt>
      <trkpt lat="41.58385" lon="8.96465">
        <ele>573.56</ele>
        <time>2026-05-08T11:09:45Z</time>
      </trkpt>
      <trkpt lat="41.58385" lon="8.96465">
        <ele>573.56</ele>
        <time>2026-05-08T11:10:18Z</time>
      </trkpt>
      <trkpt lat="41.58384" lon="8.96465">
        <ele>573.56</ele>
        <time>2026-05-08T11:10:46Z</time>
      </trkpt>
      <trkpt lat="41.58385" lon="8.96465">
        <ele>573.56</ele>
        <time>2026-05-08T11:11:14Z</time>
      </trkpt>
      <trkpt lat="41.58385" lon="8.96465">
        <ele>573.08</ele>
        <time>2026-05-08T11:11:33Z</time>
      </trkpt>
      <trkpt lat="41.58385" lon="8.96465">
        <ele>574.04</ele>
        <time>2026-05-08T11:12:02Z</time>
      </trkpt>
      <trkpt lat="41.58386" lon="8.96466">
        <ele>575.97</ele>
        <time>2026-05-08T11:12:31Z</time>
      </trkpt>
      <trkpt lat="41.58386" lon="8.96463">
        <ele>575.97</ele>
        <time>2026-05-08T11:12:51Z</time>
      </trkpt>
      <trkpt lat="41.58385" lon="8.96463">
        <ele>575.97</ele>
        <time>2026-05-08T11:13:12Z</time>
      </trkpt>
      <trkpt lat="41.58384" lon="8.96463">
        <ele>575.49</ele>
        <time>2026-05-08T11:13:37Z</time>
      </trkpt>
      <trkpt lat="41.58382" lon="8.96463">
        <ele>574.04</ele>
        <time>2026-05-08T11:14:04Z</time>
      </trkpt>
      <trkpt lat="41.58383" lon="8.96465">
        <ele>574.04</ele>
        <time>2026-05-08T11:14:35Z</time>
      </trkpt>
      <trkpt lat="41.58385" lon="8.96468">
        <ele>575.49</ele>
        <time>2026-05-08T11:14:58Z</time>
      </trkpt>
      <trkpt lat="41.58386" lon="8.96469">
        <ele>575.01</ele>
        <time>2026-05-08T11:15:22Z</time>
      </trkpt>
      <trkpt lat="41.58385" lon="8.96469">
        <ele>573.56</ele>
        <time>2026-05-08T11:15:47Z</time>
      </trkpt>
      <trkpt lat="41.58385" lon="8.96469">
        <ele>573.56</ele>
        <time>2026-05-08T11:16:04Z</time>
      </trkpt>
      <trkpt lat="41.58384" lon="8.96471">
        <ele>573.08</ele>
        <time>2026-05-08T11:16:22Z</time>
      </trkpt>
      <trkpt lat="41.58386" lon="8.96477">
        <ele>571.16</ele>
        <time>2026-05-08T11:16:39Z</time>
      </trkpt>
      <trkpt lat="41.5838" lon="8.96482">
        <ele>570.2</ele>
        <time>2026-05-08T11:16:52Z</time>
      </trkpt>
      <trkpt lat="41.58379" lon="8.96482">
        <ele>570.2</ele>
        <time>2026-05-08T11:16:54Z</time>
      </trkpt>
      <trkpt lat="41.58377" lon="8.96481">
        <ele>569.72</ele>
        <time>2026-05-08T11:16:57Z</time>
      </trkpt>
      <trkpt lat="41.58375" lon="8.96481">
        <ele>571.16</ele>
        <time>2026-05-08T11:17:12Z</time>
      </trkpt>
      <trkpt lat="41.5837" lon="8.96476">
        <ele>570.2</ele>
        <time>2026-05-08T11:17:26Z</time>
      </trkpt>
      <trkpt lat="41.58368" lon="8.96472">
        <ele>567.8</ele>
        <time>2026-05-08T11:17:39Z</time>
      </trkpt>
      <trkpt lat="41.58374" lon="8.96479">
        <ele>567.8</ele>
        <time>2026-05-08T11:17:53Z</time>
      </trkpt>
      <trkpt lat="41.58378" lon="8.96483">
        <ele>569.24</ele>
        <time>2026-05-08T11:18:02Z</time>
      </trkpt>
      <trkpt lat="41.58382" lon="8.96486">
        <ele>570.68</ele>
        <time>2026-05-08T11:18:14Z</time>
      </trkpt>
      <trkpt lat="41.58381" lon="8.96487">
        <ele>571.16</ele>
        <time>2026-05-08T11:18:52Z</time>
      </trkpt>
      <trkpt lat="41.58379" lon="8.96482">
        <ele>572.12</ele>
        <time>2026-05-08T11:19:14Z</time>
      </trkpt>
      <trkpt lat="41.58378" lon="8.96482">
        <ele>570.68</ele>
        <time>2026-05-08T11:19:41Z</time>
      </trkpt>
      <trkpt lat="41.58372" lon="8.96478">
        <ele>569.72</ele>
        <time>2026-05-08T11:20:00Z</time>
      </trkpt>
      <trkpt lat="41.58369" lon="8.96469">
        <ele>567.8</ele>
        <time>2026-05-08T11:20:14Z</time>
      </trkpt>
      <trkpt lat="41.58366" lon="8.9646">
        <ele>566.83</ele>
        <time>2026-05-08T11:20:27Z</time>
      </trkpt>
      <trkpt lat="41.58366" lon="8.96459">
        <ele>566.83</ele>
        <time>2026-05-08T11:20:29Z</time>
      </trkpt>
      <trkpt lat="41.58362" lon="8.96454">
        <ele>565.87</ele>
        <time>2026-05-08T11:20:41Z</time>
      </trkpt>
      <trkpt lat="41.58359" lon="8.96454">
        <ele>564.91</ele>
        <time>2026-05-08T11:20:44Z</time>
      </trkpt>
      <trkpt lat="41.58348" lon="8.96457">
        <ele>562.99</ele>
        <time>2026-05-08T11:20:56Z</time>
      </trkpt>
      <trkpt lat="41.58345" lon="8.96458">
        <ele>563.47</ele>
        <time>2026-05-08T11:21:08Z</time>
      </trkpt>
      <trkpt lat="41.5834" lon="8.96458">
        <ele>563.47</ele>
        <time>2026-05-08T11:21:17Z</time>
      </trkpt>
      <trkpt lat="41.5833" lon="8.96458">
        <ele>562.99</ele>
        <time>2026-05-08T11:21:34Z</time>
      </trkpt>
      <trkpt lat="41.58329" lon="8.96458">
        <ele>562.99</ele>
        <time>2026-05-08T11:21:55Z</time>
      </trkpt>
      <trkpt lat="41.58323" lon="8.96453">
        <ele>561.07</ele>
        <time>2026-05-08T11:22:07Z</time>
      </trkpt>
      <trkpt lat="41.58318" lon="8.96452">
        <ele>560.59</ele>
        <time>2026-05-08T11:22:12Z</time>
      </trkpt>
      <trkpt lat="41.58309" lon="8.96453">
        <ele>559.62</ele>
        <time>2026-05-08T11:22:25Z</time>
      </trkpt>
      <trkpt lat="41.58307" lon="8.96453">
        <ele>561.07</ele>
        <time>2026-05-08T11:22:37Z</time>
      </trkpt>
      <trkpt lat="41.5831" lon="8.96452">
        <ele>561.07</ele>
        <time>2026-05-08T11:22:55Z</time>
      </trkpt>
      <trkpt lat="41.58313" lon="8.96449">
        <ele>561.07</ele>
        <time>2026-05-08T11:23:00Z</time>
      </trkpt>
      <trkpt lat="41.58313" lon="8.96446">
        <ele>561.07</ele>
        <time>2026-05-08T11:23:02Z</time>
      </trkpt>
      <trkpt lat="41.58315" lon="8.9644">
        <ele>562.03</ele>
        <time>2026-05-08T11:23:13Z</time>
      </trkpt>
      <trkpt lat="41.58315" lon="8.96431">
        <ele>561.55</ele>
        <time>2026-05-08T11:23:23Z</time>
      </trkpt>
      <trkpt lat="41.58314" lon="8.96423">
        <ele>561.07</ele>
        <time>2026-05-08T11:23:36Z</time>
      </trkpt>
      <trkpt lat="41.58317" lon="8.96413">
        <ele>558.66</ele>
        <time>2026-05-08T11:23:49Z</time>
      </trkpt>
      <trkpt lat="41.58316" lon="8.96404">
        <ele>556.74</ele>
        <time>2026-05-08T11:24:00Z</time>
      </trkpt>
      <trkpt lat="41.58317" lon="8.96397">
        <ele>556.26</ele>
        <time>2026-05-08T11:24:11Z</time>
      </trkpt>
      <trkpt lat="41.58317" lon="8.96389">
        <ele>556.26</ele>
        <time>2026-05-08T11:24:22Z</time>
      </trkpt>
      <trkpt lat="41.58319" lon="8.96381">
        <ele>554.34</ele>
        <time>2026-05-08T11:24:36Z</time>
      </trkpt>
      <trkpt lat="41.58319" lon="8.96373">
        <ele>550.01</ele>
        <time>2026-05-08T11:24:49Z</time>
      </trkpt>
      <trkpt lat="41.58321" lon="8.96365">
        <ele>547.13</ele>
        <time>2026-05-08T11:25:00Z</time>
      </trkpt>
      <trkpt lat="41.58321" lon="8.96356">
        <ele>547.13</ele>
        <time>2026-05-08T11:25:16Z</time>
      </trkpt>
      <trkpt lat="41.58323" lon="8.96348">
        <ele>547.13</ele>
        <time>2026-05-08T11:25:29Z</time>
      </trkpt>
      <trkpt lat="41.58318" lon="8.96342">
        <ele>545.69</ele>
        <time>2026-05-08T11:25:42Z</time>
      </trkpt>
      <trkpt lat="41.58319" lon="8.96336">
        <ele>544.24</ele>
        <time>2026-05-08T11:25:54Z</time>
      </trkpt>
      <trkpt lat="41.58315" lon="8.96329">
        <ele>542.8</ele>
        <time>2026-05-08T11:26:05Z</time>
      </trkpt>
      <trkpt lat="41.58313" lon="8.96322">
        <ele>541.84</ele>
        <time>2026-05-08T11:26:16Z</time>
      </trkpt>
      <trkpt lat="41.58312" lon="8.96315">
        <ele>541.84</ele>
        <time>2026-05-08T11:26:26Z</time>
      </trkpt>
      <trkpt lat="41.58312" lon="8.96303">
        <ele>540.4</ele>
        <time>2026-05-08T11:26:40Z</time>
      </trkpt>
      <trkpt lat="41.58305" lon="8.96295">
        <ele>538.96</ele>
        <time>2026-05-08T11:26:54Z</time>
      </trkpt>
      <trkpt lat="41.58299" lon="8.96287">
        <ele>537.03</ele>
        <time>2026-05-08T11:27:09Z</time>
      </trkpt>
      <trkpt lat="41.58293" lon="8.96279">
        <ele>531.27</ele>
        <time>2026-05-08T11:27:23Z</time>
      </trkpt>
      <trkpt lat="41.58287" lon="8.96276">
        <ele>528.38</ele>
        <time>2026-05-08T11:27:35Z</time>
      </trkpt>
      <trkpt lat="41.5828" lon="8.96279">
        <ele>528.38</ele>
        <time>2026-05-08T11:27:47Z</time>
      </trkpt>
      <trkpt lat="41.58274" lon="8.96271">
        <ele>527.9</ele>
        <time>2026-05-08T11:28:02Z</time>
      </trkpt>
      <trkpt lat="41.5827" lon="8.96266">
        <ele>524.54</ele>
        <time>2026-05-08T11:28:19Z</time>
      </trkpt>
      <trkpt lat="41.58254" lon="8.96264">
        <ele>526.94</ele>
        <time>2026-05-08T11:28:34Z</time>
      </trkpt>
      <trkpt lat="41.58246" lon="8.96259">
        <ele>526.46</ele>
        <time>2026-05-08T11:28:47Z</time>
      </trkpt>
      <trkpt lat="41.58243" lon="8.96257">
        <ele>524.54</ele>
        <time>2026-05-08T11:28:53Z</time>
      </trkpt>
      <trkpt lat="41.58234" lon="8.96255">
        <ele>522.13</ele>
        <time>2026-05-08T11:29:06Z</time>
      </trkpt>
      <trkpt lat="41.58233" lon="8.96251">
        <ele>518.77</ele>
        <time>2026-05-08T11:29:24Z</time>
      </trkpt>
      <trkpt lat="41.5823" lon="8.96252">
        <ele>518.29</ele>
        <time>2026-05-08T11:29:47Z</time>
      </trkpt>
      <trkpt lat="41.58226" lon="8.9625">
        <ele>520.69</ele>
        <time>2026-05-08T11:30:01Z</time>
      </trkpt>
      <trkpt lat="41.58224" lon="8.96259">
        <ele>526.94</ele>
        <time>2026-05-08T11:30:34Z</time>
      </trkpt>
      <trkpt lat="41.58222" lon="8.96255">
        <ele>526.94</ele>
        <time>2026-05-08T11:31:04Z</time>
      </trkpt>
      <trkpt lat="41.58215" lon="8.96252">
        <ele>521.17</ele>
        <time>2026-05-08T11:31:15Z</time>
      </trkpt>
      <trkpt lat="41.5821" lon="8.96256">
        <ele>519.25</ele>
        <time>2026-05-08T11:31:25Z</time>
      </trkpt>
      <trkpt lat="41.58205" lon="8.96261">
        <ele>517.81</ele>
        <time>2026-05-08T11:31:34Z</time>
      </trkpt>
      <trkpt lat="41.58194" lon="8.96256">
        <ele>518.77</ele>
        <time>2026-05-08T11:31:48Z</time>
      </trkpt>
      <trkpt lat="41.58186" lon="8.96258">
        <ele>518.29</ele>
        <time>2026-05-08T11:32:01Z</time>
      </trkpt>
      <trkpt lat="41.5818" lon="8.96261">
        <ele>518.77</ele>
        <time>2026-05-08T11:32:13Z</time>
      </trkpt>
      <trkpt lat="41.58174" lon="8.96262">
        <ele>519.25</ele>
        <time>2026-05-08T11:32:24Z</time>
      </trkpt>
      <trkpt lat="41.58169" lon="8.96253">
        <ele>518.77</ele>
        <time>2026-05-08T11:32:37Z</time>
      </trkpt>
      <trkpt lat="41.58159" lon="8.96248">
        <ele>517.33</ele>
        <time>2026-05-08T11:32:52Z</time>
      </trkpt>
      <trkpt lat="41.58157" lon="8.96251">
        <ele>509.64</ele>
        <time>2026-05-08T11:33:14Z</time>
      </trkpt>
      <trkpt lat="41.58149" lon="8.96253">
        <ele>509.64</ele>
        <time>2026-05-08T11:33:26Z</time>
      </trkpt>
      <trkpt lat="41.58143" lon="8.9625">
        <ele>508.67</ele>
        <time>2026-05-08T11:33:39Z</time>
      </trkpt>
      <trkpt lat="41.58141" lon="8.96245">
        <ele>506.27</ele>
        <time>2026-05-08T11:33:54Z</time>
      </trkpt>
      <trkpt lat="41.58139" lon="8.96238">
        <ele>505.79</ele>
        <time>2026-05-08T11:34:09Z</time>
      </trkpt>
      <trkpt lat="41.58138" lon="8.9623">
        <ele>506.27</ele>
        <time>2026-05-08T11:34:19Z</time>
      </trkpt>
      <trkpt lat="41.58137" lon="8.96223">
        <ele>504.35</ele>
        <time>2026-05-08T11:34:32Z</time>
      </trkpt>
      <trkpt lat="41.58137" lon="8.96218">
        <ele>500.5</ele>
        <time>2026-05-08T11:34:45Z</time>
      </trkpt>
      <trkpt lat="41.58133" lon="8.96215">
        <ele>496.66</ele>
        <time>2026-05-08T11:34:58Z</time>
      </trkpt>
      <trkpt lat="41.58127" lon="8.96212">
        <ele>495.22</ele>
        <time>2026-05-08T11:35:13Z</time>
      </trkpt>
      <trkpt lat="41.58125" lon="8.96207">
        <ele>494.74</ele>
        <time>2026-05-08T11:35:27Z</time>
      </trkpt>
      <trkpt lat="41.58124" lon="8.96202">
        <ele>491.37</ele>
        <time>2026-05-08T11:35:42Z</time>
      </trkpt>
      <trkpt lat="41.58123" lon="8.96196">
        <ele>486.08</ele>
        <time>2026-05-08T11:35:56Z</time>
      </trkpt>
      <trkpt lat="41.58121" lon="8.96184">
        <ele>487.53</ele>
        <time>2026-05-08T11:36:09Z</time>
      </trkpt>
      <trkpt lat="41.58123" lon="8.96177">
        <ele>489.93</ele>
        <time>2026-05-08T11:36:26Z</time>
      </trkpt>
      <trkpt lat="41.58121" lon="8.96167">
        <ele>489.93</ele>
        <time>2026-05-08T11:36:38Z</time>
      </trkpt>
      <trkpt lat="41.58118" lon="8.96162">
        <ele>488.97</ele>
        <time>2026-05-08T11:36:51Z</time>
      </trkpt>
      <trkpt lat="41.58112" lon="8.96159">
        <ele>488.49</ele>
        <time>2026-05-08T11:37:11Z</time>
      </trkpt>
      <trkpt lat="41.58106" lon="8.9616">
        <ele>486.56</ele>
        <time>2026-05-08T11:37:22Z</time>
      </trkpt>
      <trkpt lat="41.581" lon="8.96162">
        <ele>486.08</ele>
        <time>2026-05-08T11:37:33Z</time>
      </trkpt>
      <trkpt lat="41.58094" lon="8.96164">
        <ele>484.64</ele>
        <time>2026-05-08T11:37:45Z</time>
      </trkpt>
      <trkpt lat="41.58087" lon="8.96162">
        <ele>481.28</ele>
        <time>2026-05-08T11:38:02Z</time>
      </trkpt>
      <trkpt lat="41.5808" lon="8.96163">
        <ele>480.32</ele>
        <time>2026-05-08T11:38:16Z</time>
      </trkpt>
      <trkpt lat="41.58075" lon="8.96159">
        <ele>478.87</ele>
        <time>2026-05-08T11:38:28Z</time>
      </trkpt>
      <trkpt lat="41.58074" lon="8.96151">
        <ele>476.47</ele>
        <time>2026-05-08T11:38:41Z</time>
      </trkpt>
      <trkpt lat="41.58072" lon="8.96148">
        <ele>472.63</ele>
        <time>2026-05-08T11:38:54Z</time>
      </trkpt>
      <trkpt lat="41.58065" lon="8.96143">
        <ele>469.26</ele>
        <time>2026-05-08T11:39:07Z</time>
      </trkpt>
      <trkpt lat="41.58056" lon="8.96132">
        <ele>469.74</ele>
        <time>2026-05-08T11:39:21Z</time>
      </trkpt>
      <trkpt lat="41.58049" lon="8.96129">
        <ele>469.26</ele>
        <time>2026-05-08T11:39:33Z</time>
      </trkpt>
      <trkpt lat="41.58046" lon="8.96122">
        <ele>468.3</ele>
        <time>2026-05-08T11:39:47Z</time>
      </trkpt>
      <trkpt lat="41.58044" lon="8.96118">
        <ele>465.42</ele>
        <time>2026-05-08T11:40:01Z</time>
      </trkpt>
      <trkpt lat="41.58041" lon="8.9611">
        <ele>463.01</ele>
        <time>2026-05-08T11:40:12Z</time>
      </trkpt>
      <trkpt lat="41.5804" lon="8.96098">
        <ele>466.86</ele>
        <time>2026-05-08T11:40:24Z</time>
      </trkpt>
      <trkpt lat="41.58039" lon="8.96093">
        <ele>466.38</ele>
        <time>2026-05-08T11:40:37Z</time>
      </trkpt>
      <trkpt lat="41.58042" lon="8.96086">
        <ele>468.3</ele>
        <time>2026-05-08T11:40:50Z</time>
      </trkpt>
      <trkpt lat="41.58038" lon="8.96087">
        <ele>469.74</ele>
        <time>2026-05-08T11:40:57Z</time>
      </trkpt>
      <trkpt lat="41.58036" lon="8.96092">
        <ele>470.7</ele>
        <time>2026-05-08T11:41:15Z</time>
      </trkpt>
      <trkpt lat="41.58036" lon="8.96094">
        <ele>471.66</ele>
        <time>2026-05-08T11:41:32Z</time>
      </trkpt>
      <trkpt lat="41.58034" lon="8.9609">
        <ele>470.7</ele>
        <time>2026-05-08T11:41:50Z</time>
      </trkpt>
      <trkpt lat="41.58028" lon="8.96093">
        <ele>470.7</ele>
        <time>2026-05-08T11:42:05Z</time>
      </trkpt>
      <trkpt lat="41.58021" lon="8.96093">
        <ele>469.74</ele>
        <time>2026-05-08T11:42:20Z</time>
      </trkpt>
      <trkpt lat="41.58013" lon="8.96089">
        <ele>470.7</ele>
        <time>2026-05-08T11:42:34Z</time>
      </trkpt>
      <trkpt lat="41.58011" lon="8.96083">
        <ele>467.34</ele>
        <time>2026-05-08T11:42:48Z</time>
      </trkpt>
      <trkpt lat="41.5801" lon="8.96073">
        <ele>462.53</ele>
        <time>2026-05-08T11:43:05Z</time>
      </trkpt>
      <trkpt lat="41.58005" lon="8.96065">
        <ele>458.69</ele>
        <time>2026-05-08T11:43:19Z</time>
      </trkpt>
      <trkpt lat="41.58007" lon="8.96049">
        <ele>456.28</ele>
        <time>2026-05-08T11:43:32Z</time>
      </trkpt>
      <trkpt lat="41.58006" lon="8.96038">
        <ele>456.28</ele>
        <time>2026-05-08T11:43:45Z</time>
      </trkpt>
      <trkpt lat="41.57999" lon="8.96034">
        <ele>458.21</ele>
        <time>2026-05-08T11:44:02Z</time>
      </trkpt>
      <trkpt lat="41.57993" lon="8.9603">
        <ele>456.28</ele>
        <time>2026-05-08T11:44:17Z</time>
      </trkpt>
      <trkpt lat="41.5799" lon="8.96023">
        <ele>454.36</ele>
        <time>2026-05-08T11:44:30Z</time>
      </trkpt>
      <trkpt lat="41.5799" lon="8.96015">
        <ele>453.4</ele>
        <time>2026-05-08T11:44:43Z</time>
      </trkpt>
      <trkpt lat="41.57985" lon="8.96006">
        <ele>453.4</ele>
        <time>2026-05-08T11:44:55Z</time>
      </trkpt>
      <trkpt lat="41.57983" lon="8.95997">
        <ele>452.92</ele>
        <time>2026-05-08T11:45:07Z</time>
      </trkpt>
      <trkpt lat="41.57982" lon="8.95988">
        <ele>451</ele>
        <time>2026-05-08T11:45:19Z</time>
      </trkpt>
      <trkpt lat="41.57978" lon="8.95982">
        <ele>449.55</ele>
        <time>2026-05-08T11:45:33Z</time>
      </trkpt>
      <trkpt lat="41.57975" lon="8.9598">
        <ele>446.67</ele>
        <time>2026-05-08T11:45:46Z</time>
      </trkpt>
      <trkpt lat="41.57978" lon="8.9597">
        <ele>445.71</ele>
        <time>2026-05-08T11:45:58Z</time>
      </trkpt>
      <trkpt lat="41.57979" lon="8.95969">
        <ele>445.71</ele>
        <time>2026-05-08T11:45:59Z</time>
      </trkpt>
      <trkpt lat="41.5798" lon="8.95959">
        <ele>445.23</ele>
        <time>2026-05-08T11:46:10Z</time>
      </trkpt>
      <trkpt lat="41.57976" lon="8.95955">
        <ele>442.82</ele>
        <time>2026-05-08T11:46:25Z</time>
      </trkpt>
      <trkpt lat="41.57971" lon="8.95958">
        <ele>445.71</ele>
        <time>2026-05-08T11:46:36Z</time>
      </trkpt>
      <trkpt lat="41.57967" lon="8.95954">
        <ele>445.23</ele>
        <time>2026-05-08T11:46:51Z</time>
      </trkpt>
      <trkpt lat="41.57964" lon="8.95956">
        <ele>443.79</ele>
        <time>2026-05-08T11:46:56Z</time>
      </trkpt>
      <trkpt lat="41.57959" lon="8.9595">
        <ele>443.79</ele>
        <time>2026-05-08T11:47:09Z</time>
      </trkpt>
      <trkpt lat="41.57958" lon="8.95946">
        <ele>441.38</ele>
        <time>2026-05-08T11:47:20Z</time>
      </trkpt>
      <trkpt lat="41.57955" lon="8.95945">
        <ele>438.5</ele>
        <time>2026-05-08T11:47:33Z</time>
      </trkpt>
      <trkpt lat="41.57951" lon="8.95939">
        <ele>436.1</ele>
        <time>2026-05-08T11:47:50Z</time>
      </trkpt>
      <trkpt lat="41.57948" lon="8.95934">
        <ele>434.65</ele>
        <time>2026-05-08T11:48:01Z</time>
      </trkpt>
      <trkpt lat="41.57941" lon="8.95935">
        <ele>433.21</ele>
        <time>2026-05-08T11:48:12Z</time>
      </trkpt>
      <trkpt lat="41.57936" lon="8.9593">
        <ele>429.37</ele>
        <time>2026-05-08T11:48:25Z</time>
      </trkpt>
      <trkpt lat="41.57934" lon="8.95928">
        <ele>428.4</ele>
        <time>2026-05-08T11:48:28Z</time>
      </trkpt>
      <trkpt lat="41.57932" lon="8.95927">
        <ele>427.44</ele>
        <time>2026-05-08T11:48:31Z</time>
      </trkpt>
      <trkpt lat="41.57922" lon="8.95931">
        <ele>429.37</ele>
        <time>2026-05-08T11:48:43Z</time>
      </trkpt>
      <trkpt lat="41.57915" lon="8.95927">
        <ele>428.89</ele>
        <time>2026-05-08T11:48:57Z</time>
      </trkpt>
      <trkpt lat="41.57909" lon="8.95919">
        <ele>427.92</ele>
        <time>2026-05-08T11:49:10Z</time>
      </trkpt>
      <trkpt lat="41.57907" lon="8.95917">
        <ele>426</ele>
        <time>2026-05-08T11:49:25Z</time>
      </trkpt>
      <trkpt lat="41.57909" lon="8.95912">
        <ele>429.85</ele>
        <time>2026-05-08T11:49:35Z</time>
      </trkpt>
      <trkpt lat="41.57905" lon="8.95911">
        <ele>432.25</ele>
        <time>2026-05-08T11:49:58Z</time>
      </trkpt>
      <trkpt lat="41.57905" lon="8.95915">
        <ele>434.17</ele>
        <time>2026-05-08T11:50:10Z</time>
      </trkpt>
      <trkpt lat="41.57901" lon="8.95906">
        <ele>433.21</ele>
        <time>2026-05-08T11:50:23Z</time>
      </trkpt>
      <trkpt lat="41.57901" lon="8.95904">
        <ele>432.73</ele>
        <time>2026-05-08T11:50:25Z</time>
      </trkpt>
      <trkpt lat="41.57902" lon="8.95896">
        <ele>431.77</ele>
        <time>2026-05-08T11:50:33Z</time>
      </trkpt>
      <trkpt lat="41.57903" lon="8.95886">
        <ele>428.89</ele>
        <time>2026-05-08T11:50:44Z</time>
      </trkpt>
      <trkpt lat="41.57904" lon="8.95882">
        <ele>427.44</ele>
        <time>2026-05-08T11:50:50Z</time>
      </trkpt>
      <trkpt lat="41.57905" lon="8.9588">
        <ele>426.96</ele>
        <time>2026-05-08T11:50:53Z</time>
      </trkpt>
      <trkpt lat="41.57908" lon="8.9587">
        <ele>424.56</ele>
        <time>2026-05-08T11:51:05Z</time>
      </trkpt>
      <trkpt lat="41.57904" lon="8.95863">
        <ele>420.71</ele>
        <time>2026-05-08T11:51:16Z</time>
      </trkpt>
      <trkpt lat="41.579" lon="8.95858">
        <ele>417.83</ele>
        <time>2026-05-08T11:51:27Z</time>
      </trkpt>
      <trkpt lat="41.57898" lon="8.95848">
        <ele>415.91</ele>
        <time>2026-05-08T11:51:41Z</time>
      </trkpt>
      <trkpt lat="41.57899" lon="8.95837">
        <ele>413.98</ele>
        <time>2026-05-08T11:51:53Z</time>
      </trkpt>
      <trkpt lat="41.57896" lon="8.95827">
        <ele>411.58</ele>
        <time>2026-05-08T11:52:04Z</time>
      </trkpt>
      <trkpt lat="41.57896" lon="8.95827">
        <ele>411.58</ele>
        <time>2026-05-08T11:52:05Z</time>
      </trkpt>
      <trkpt lat="41.57895" lon="8.95823">
        <ele>411.58</ele>
        <time>2026-05-08T11:52:09Z</time>
      </trkpt>
      <trkpt lat="41.57895" lon="8.95811">
        <ele>411.1</ele>
        <time>2026-05-08T11:52:20Z</time>
      </trkpt>
      <trkpt lat="41.57897" lon="8.95801">
        <ele>410.62</ele>
        <time>2026-05-08T11:52:31Z</time>
      </trkpt>
      <trkpt lat="41.57898" lon="8.95789">
        <ele>411.58</ele>
        <time>2026-05-08T11:52:41Z</time>
      </trkpt>
      <trkpt lat="41.57905" lon="8.95777">
        <ele>414.47</ele>
        <time>2026-05-08T11:52:55Z</time>
      </trkpt>
      <trkpt lat="41.5791" lon="8.95774">
        <ele>414.47</ele>
        <time>2026-05-08T11:53:02Z</time>
      </trkpt>
      <trkpt lat="41.57918" lon="8.95774">
        <ele>415.43</ele>
        <time>2026-05-08T11:53:12Z</time>
      </trkpt>
      <trkpt lat="41.5792" lon="8.95773">
        <ele>415.43</ele>
        <time>2026-05-08T11:53:15Z</time>
      </trkpt>
      <trkpt lat="41.57929" lon="8.95773">
        <ele>415.43</ele>
        <time>2026-05-08T11:53:27Z</time>
      </trkpt>
      <trkpt lat="41.57936" lon="8.95769">
        <ele>413.02</ele>
        <time>2026-05-08T11:53:46Z</time>
      </trkpt>
      <trkpt lat="41.57938" lon="8.95768">
        <ele>414.47</ele>
        <time>2026-05-08T11:54:10Z</time>
      </trkpt>
      <trkpt lat="41.57937" lon="8.95773">
        <ele>416.39</ele>
        <time>2026-05-08T11:54:44Z</time>
      </trkpt>
      <trkpt lat="41.57936" lon="8.95778">
        <ele>418.79</ele>
        <time>2026-05-08T11:55:23Z</time>
      </trkpt>
      <trkpt lat="41.57937" lon="8.95776">
        <ele>419.75</ele>
        <time>2026-05-08T11:55:55Z</time>
      </trkpt>
      <trkpt lat="41.57938" lon="8.95769">
        <ele>417.35</ele>
        <time>2026-05-08T11:56:17Z</time>
      </trkpt>
      <trkpt lat="41.57935" lon="8.95768">
        <ele>416.39</ele>
        <time>2026-05-08T11:56:44Z</time>
      </trkpt>
      <trkpt lat="41.57936" lon="8.95767">
        <ele>415.91</ele>
        <time>2026-05-08T11:57:10Z</time>
      </trkpt>
      <trkpt lat="41.57935" lon="8.95772">
        <ele>416.87</ele>
        <time>2026-05-08T11:57:33Z</time>
      </trkpt>
      <trkpt lat="41.5794" lon="8.9577">
        <ele>419.27</ele>
        <time>2026-05-08T11:57:59Z</time>
      </trkpt>
      <trkpt lat="41.57945" lon="8.95764">
        <ele>417.35</ele>
        <time>2026-05-08T11:58:11Z</time>
      </trkpt>
      <trkpt lat="41.57949" lon="8.95764">
        <ele>417.35</ele>
        <time>2026-05-08T11:58:22Z</time>
      </trkpt>
      <trkpt lat="41.57954" lon="8.95761">
        <ele>416.87</ele>
        <time>2026-05-08T11:58:34Z</time>
      </trkpt>
      <trkpt lat="41.57961" lon="8.9576">
        <ele>413.5</ele>
        <time>2026-05-08T11:58:47Z</time>
      </trkpt>
      <trkpt lat="41.57969" lon="8.95766">
        <ele>411.1</ele>
        <time>2026-05-08T11:59:00Z</time>
      </trkpt>
      <trkpt lat="41.57976" lon="8.95771">
        <ele>409.66</ele>
        <time>2026-05-08T11:59:14Z</time>
      </trkpt>
      <trkpt lat="41.57981" lon="8.95773">
        <ele>408.7</ele>
        <time>2026-05-08T11:59:27Z</time>
      </trkpt>
      <trkpt lat="41.57988" lon="8.95776">
        <ele>407.74</ele>
        <time>2026-05-08T11:59:38Z</time>
      </trkpt>
      <trkpt lat="41.57994" lon="8.95778">
        <ele>404.37</ele>
        <time>2026-05-08T11:59:52Z</time>
      </trkpt>
      <trkpt lat="41.58003" lon="8.95781">
        <ele>403.41</ele>
        <time>2026-05-08T12:00:03Z</time>
      </trkpt>
      <trkpt lat="41.5801" lon="8.95784">
        <ele>403.41</ele>
        <time>2026-05-08T12:00:15Z</time>
      </trkpt>
      <trkpt lat="41.58022" lon="8.95788">
        <ele>404.85</ele>
        <time>2026-05-08T12:00:28Z</time>
      </trkpt>
      <trkpt lat="41.58029" lon="8.95792">
        <ele>404.37</ele>
        <time>2026-05-08T12:00:41Z</time>
      </trkpt>
      <trkpt lat="41.58038" lon="8.95785">
        <ele>407.74</ele>
        <time>2026-05-08T12:00:59Z</time>
      </trkpt>
      <trkpt lat="41.58043" lon="8.95783">
        <ele>406.77</ele>
        <time>2026-05-08T12:01:34Z</time>
      </trkpt>
      <trkpt lat="41.58041" lon="8.95783">
        <ele>405.33</ele>
        <time>2026-05-08T12:01:50Z</time>
      </trkpt>
      <trkpt lat="41.58041" lon="8.95779">
        <ele>402.45</ele>
        <time>2026-05-08T12:02:03Z</time>
      </trkpt>
      <trkpt lat="41.58043" lon="8.95773">
        <ele>399.08</ele>
        <time>2026-05-08T12:02:17Z</time>
      </trkpt>
      <trkpt lat="41.5804" lon="8.95769">
        <ele>396.68</ele>
        <time>2026-05-08T12:02:27Z</time>
      </trkpt>
      <trkpt lat="41.58039" lon="8.95762">
        <ele>394.76</ele>
        <time>2026-05-08T12:02:40Z</time>
      </trkpt>
      <trkpt lat="41.58044" lon="8.95757">
        <ele>392.84</ele>
        <time>2026-05-08T12:02:56Z</time>
      </trkpt>
      <trkpt lat="41.58049" lon="8.95755">
        <ele>393.8</ele>
        <time>2026-05-08T12:03:09Z</time>
      </trkpt>
      <trkpt lat="41.58053" lon="8.95746">
        <ele>391.39</ele>
        <time>2026-05-08T12:03:26Z</time>
      </trkpt>
      <trkpt lat="41.58058" lon="8.95745">
        <ele>390.43</ele>
        <time>2026-05-08T12:03:35Z</time>
      </trkpt>
      <trkpt lat="41.58067" lon="8.95744">
        <ele>389.95</ele>
        <time>2026-05-08T12:03:48Z</time>
      </trkpt>
      <trkpt lat="41.58075" lon="8.95739">
        <ele>389.47</ele>
        <time>2026-05-08T12:03:59Z</time>
      </trkpt>
      <trkpt lat="41.58085" lon="8.95733">
        <ele>388.03</ele>
        <time>2026-05-08T12:04:12Z</time>
      </trkpt>
      <trkpt lat="41.5809" lon="8.95729">
        <ele>387.55</ele>
        <time>2026-05-08T12:04:24Z</time>
      </trkpt>
      <trkpt lat="41.58094" lon="8.95722">
        <ele>386.11</ele>
        <time>2026-05-08T12:04:34Z</time>
      </trkpt>
      <trkpt lat="41.58099" lon="8.95716">
        <ele>384.66</ele>
        <time>2026-05-08T12:04:46Z</time>
      </trkpt>
      <trkpt lat="41.58103" lon="8.95708">
        <ele>382.26</ele>
        <time>2026-05-08T12:04:58Z</time>
      </trkpt>
      <trkpt lat="41.58109" lon="8.95705">
        <ele>380.82</ele>
        <time>2026-05-08T12:05:14Z</time>
      </trkpt>
      <trkpt lat="41.58113" lon="8.95696">
        <ele>378.42</ele>
        <time>2026-05-08T12:05:29Z</time>
      </trkpt>
      <trkpt lat="41.58115" lon="8.95696">
        <ele>378.9</ele>
        <time>2026-05-08T12:05:32Z</time>
      </trkpt>
      <trkpt lat="41.58123" lon="8.95703">
        <ele>380.34</ele>
        <time>2026-05-08T12:05:45Z</time>
      </trkpt>
      <trkpt lat="41.58129" lon="8.95704">
        <ele>381.78</ele>
        <time>2026-05-08T12:05:55Z</time>
      </trkpt>
      <trkpt lat="41.58135" lon="8.95702">
        <ele>381.3</ele>
        <time>2026-05-08T12:06:01Z</time>
      </trkpt>
      <trkpt lat="41.58144" lon="8.95703">
        <ele>379.86</ele>
        <time>2026-05-08T12:06:14Z</time>
      </trkpt>
      <trkpt lat="41.58153" lon="8.95694">
        <ele>378.42</ele>
        <time>2026-05-08T12:06:30Z</time>
      </trkpt>
      <trkpt lat="41.5816" lon="8.95691">
        <ele>378.9</ele>
        <time>2026-05-08T12:06:41Z</time>
      </trkpt>
      <trkpt lat="41.58168" lon="8.95696">
        <ele>378.42</ele>
        <time>2026-05-08T12:06:52Z</time>
      </trkpt>
      <trkpt lat="41.58175" lon="8.95696">
        <ele>378.9</ele>
        <time>2026-05-08T12:07:04Z</time>
      </trkpt>
      <trkpt lat="41.58185" lon="8.95697">
        <ele>376.97</ele>
        <time>2026-05-08T12:07:18Z</time>
      </trkpt>
      <trkpt lat="41.58192" lon="8.95706">
        <ele>376.01</ele>
        <time>2026-05-08T12:07:29Z</time>
      </trkpt>
      <trkpt lat="41.58199" lon="8.95713">
        <ele>375.05</ele>
        <time>2026-05-08T12:07:40Z</time>
      </trkpt>
      <trkpt lat="41.58208" lon="8.9572">
        <ele>374.57</ele>
        <time>2026-05-08T12:07:52Z</time>
      </trkpt>
      <trkpt lat="41.58216" lon="8.95723">
        <ele>373.61</ele>
        <time>2026-05-08T12:08:04Z</time>
      </trkpt>
      <trkpt lat="41.58225" lon="8.95729">
        <ele>370.73</ele>
        <time>2026-05-08T12:08:16Z</time>
      </trkpt>
      <trkpt lat="41.58231" lon="8.95733">
        <ele>369.28</ele>
        <time>2026-05-08T12:08:29Z</time>
      </trkpt>
      <trkpt lat="41.58239" lon="8.95734">
        <ele>369.28</ele>
        <time>2026-05-08T12:08:41Z</time>
      </trkpt>
      <trkpt lat="41.5825" lon="8.95736">
        <ele>369.28</ele>
        <time>2026-05-08T12:08:53Z</time>
      </trkpt>
      <trkpt lat="41.58254" lon="8.95741">
        <ele>369.76</ele>
        <time>2026-05-08T12:09:07Z</time>
      </trkpt>
      <trkpt lat="41.58257" lon="8.95748">
        <ele>371.21</ele>
        <time>2026-05-08T12:09:20Z</time>
      </trkpt>
      <trkpt lat="41.58258" lon="8.95751">
        <ele>372.17</ele>
        <time>2026-05-08T12:09:33Z</time>
      </trkpt>
      <trkpt lat="41.58261" lon="8.95759">
        <ele>372.17</ele>
        <time>2026-05-08T12:09:46Z</time>
      </trkpt>
      <trkpt lat="41.58261" lon="8.95766">
        <ele>371.69</ele>
        <time>2026-05-08T12:09:57Z</time>
      </trkpt>
      <trkpt lat="41.58261" lon="8.95771">
        <ele>371.21</ele>
        <time>2026-05-08T12:10:08Z</time>
      </trkpt>
      <trkpt lat="41.5826" lon="8.95778">
        <ele>373.13</ele>
        <time>2026-05-08T12:10:18Z</time>
      </trkpt>
      <trkpt lat="41.58266" lon="8.95789">
        <ele>375.05</ele>
        <time>2026-05-08T12:10:30Z</time>
      </trkpt>
      <trkpt lat="41.58272" lon="8.95793">
        <ele>376.97</ele>
        <time>2026-05-08T12:10:43Z</time>
      </trkpt>
      <trkpt lat="41.58271" lon="8.9579">
        <ele>378.9</ele>
        <time>2026-05-08T12:11:14Z</time>
      </trkpt>
      <trkpt lat="41.58273" lon="8.95794">
        <ele>379.38</ele>
        <time>2026-05-08T12:11:46Z</time>
      </trkpt>
      <trkpt lat="41.58273" lon="8.95796">
        <ele>384.18</ele>
        <time>2026-05-08T12:12:22Z</time>
      </trkpt>
      <trkpt lat="41.58274" lon="8.95793">
        <ele>384.18</ele>
        <time>2026-05-08T12:12:49Z</time>
      </trkpt>
      <trkpt lat="41.58271" lon="8.95791">
        <ele>381.3</ele>
        <time>2026-05-08T12:13:32Z</time>
      </trkpt>
      <trkpt lat="41.58276" lon="8.95788">
        <ele>382.26</ele>
        <time>2026-05-08T12:13:58Z</time>
      </trkpt>
      <trkpt lat="41.58285" lon="8.95781">
        <ele>379.86</ele>
        <time>2026-05-08T12:14:11Z</time>
      </trkpt>
      <trkpt lat="41.58295" lon="8.95786">
        <ele>378.42</ele>
        <time>2026-05-08T12:14:23Z</time>
      </trkpt>
      <trkpt lat="41.58303" lon="8.95796">
        <ele>377.45</ele>
        <time>2026-05-08T12:14:37Z</time>
      </trkpt>
      <trkpt lat="41.58307" lon="8.95803">
        <ele>376.97</ele>
        <time>2026-05-08T12:14:48Z</time>
      </trkpt>
      <trkpt lat="41.5831" lon="8.95811">
        <ele>377.94</ele>
        <time>2026-05-08T12:15:01Z</time>
      </trkpt>
      <trkpt lat="41.58318" lon="8.95816">
        <ele>380.34</ele>
        <time>2026-05-08T12:15:12Z</time>
      </trkpt>
      <trkpt lat="41.58326" lon="8.95819">
        <ele>382.26</ele>
        <time>2026-05-08T12:15:25Z</time>
      </trkpt>
      <trkpt lat="41.58336" lon="8.95826">
        <ele>384.66</ele>
        <time>2026-05-08T12:15:39Z</time>
      </trkpt>
      <trkpt lat="41.58339" lon="8.95828">
        <ele>384.66</ele>
        <time>2026-05-08T12:15:44Z</time>
      </trkpt>
      <trkpt lat="41.58347" lon="8.95826">
        <ele>386.11</ele>
        <time>2026-05-08T12:16:00Z</time>
      </trkpt>
      <trkpt lat="41.58356" lon="8.95828">
        <ele>386.59</ele>
        <time>2026-05-08T12:16:14Z</time>
      </trkpt>
      <trkpt lat="41.58363" lon="8.95832">
        <ele>385.63</ele>
        <time>2026-05-08T12:16:26Z</time>
      </trkpt>
      <trkpt lat="41.5837" lon="8.95835">
        <ele>385.15</ele>
        <time>2026-05-08T12:16:34Z</time>
      </trkpt>
      <trkpt lat="41.5838" lon="8.9584">
        <ele>383.7</ele>
        <time>2026-05-08T12:16:46Z</time>
      </trkpt>
      <trkpt lat="41.5839" lon="8.95845">
        <ele>380.34</ele>
        <time>2026-05-08T12:17:00Z</time>
      </trkpt>
      <trkpt lat="41.584" lon="8.95848">
        <ele>380.82</ele>
        <time>2026-05-08T12:17:15Z</time>
      </trkpt>
      <trkpt lat="41.58411" lon="8.9585">
        <ele>379.86</ele>
        <time>2026-05-08T12:17:30Z</time>
      </trkpt>
      <trkpt lat="41.5842" lon="8.95854">
        <ele>378.42</ele>
        <time>2026-05-08T12:17:44Z</time>
      </trkpt>
      <trkpt lat="41.58428" lon="8.95861">
        <ele>377.45</ele>
        <time>2026-05-08T12:17:55Z</time>
      </trkpt>
      <trkpt lat="41.58435" lon="8.95868">
        <ele>376.01</ele>
        <time>2026-05-08T12:18:06Z</time>
      </trkpt>
      <trkpt lat="41.58444" lon="8.95875">
        <ele>376.49</ele>
        <time>2026-05-08T12:18:18Z</time>
      </trkpt>
      <trkpt lat="41.58455" lon="8.9588">
        <ele>376.49</ele>
        <time>2026-05-08T12:18:33Z</time>
      </trkpt>
      <trkpt lat="41.58457" lon="8.95882">
        <ele>376.49</ele>
        <time>2026-05-08T12:18:35Z</time>
      </trkpt>
      <trkpt lat="41.58466" lon="8.95883">
        <ele>376.01</ele>
        <time>2026-05-08T12:18:47Z</time>
      </trkpt>
      <trkpt lat="41.58473" lon="8.95883">
        <ele>376.01</ele>
        <time>2026-05-08T12:18:58Z</time>
      </trkpt>
      <trkpt lat="41.5848" lon="8.95882">
        <ele>376.49</ele>
        <time>2026-05-08T12:19:18Z</time>
      </trkpt>
      <trkpt lat="41.58487" lon="8.95885">
        <ele>375.05</ele>
        <time>2026-05-08T12:19:31Z</time>
      </trkpt>
      <trkpt lat="41.58495" lon="8.95881">
        <ele>374.57</ele>
        <time>2026-05-08T12:19:45Z</time>
      </trkpt>
      <trkpt lat="41.58501" lon="8.95879">
        <ele>373.61</ele>
        <time>2026-05-08T12:19:59Z</time>
      </trkpt>
      <trkpt lat="41.58506" lon="8.95871">
        <ele>371.21</ele>
        <time>2026-05-08T12:20:12Z</time>
      </trkpt>
      <trkpt lat="41.58515" lon="8.95864">
        <ele>371.69</ele>
        <time>2026-05-08T12:20:25Z</time>
      </trkpt>
      <trkpt lat="41.5852" lon="8.95857">
        <ele>369.76</ele>
        <time>2026-05-08T12:20:40Z</time>
      </trkpt>
      <trkpt lat="41.58521" lon="8.95848">
        <ele>365.44</ele>
        <time>2026-05-08T12:20:53Z</time>
      </trkpt>
      <trkpt lat="41.58522" lon="8.95839">
        <ele>364.96</ele>
        <time>2026-05-08T12:21:06Z</time>
      </trkpt>
      <trkpt lat="41.58525" lon="8.9583">
        <ele>362.07</ele>
        <time>2026-05-08T12:21:18Z</time>
      </trkpt>
      <trkpt lat="41.58524" lon="8.95838">
        <ele>362.07</ele>
        <time>2026-05-08T12:21:40Z</time>
      </trkpt>
      <trkpt lat="41.58528" lon="8.95833">
        <ele>364.48</ele>
        <time>2026-05-08T12:21:57Z</time>
      </trkpt>
      <trkpt lat="41.58536" lon="8.95831">
        <ele>363.52</ele>
        <time>2026-05-08T12:22:11Z</time>
      </trkpt>
      <trkpt lat="41.58545" lon="8.95831">
        <ele>363.52</ele>
        <time>2026-05-08T12:22:22Z</time>
      </trkpt>
      <trkpt lat="41.58553" lon="8.95829">
        <ele>363.04</ele>
        <time>2026-05-08T12:22:35Z</time>
      </trkpt>
      <trkpt lat="41.58565" lon="8.95831">
        <ele>361.11</ele>
        <time>2026-05-08T12:22:49Z</time>
      </trkpt>
      <trkpt lat="41.58573" lon="8.95834">
        <ele>359.67</ele>
        <time>2026-05-08T12:23:00Z</time>
      </trkpt>
      <trkpt lat="41.58583" lon="8.95838">
        <ele>357.27</ele>
        <time>2026-05-08T12:23:13Z</time>
      </trkpt>
      <trkpt lat="41.5859" lon="8.95842">
        <ele>355.83</ele>
        <time>2026-05-08T12:23:25Z</time>
      </trkpt>
      <trkpt lat="41.58602" lon="8.95846">
        <ele>354.86</ele>
        <time>2026-05-08T12:23:38Z</time>
      </trkpt>
      <trkpt lat="41.58608" lon="8.95851">
        <ele>353.9</ele>
        <time>2026-05-08T12:23:51Z</time>
      </trkpt>
      <trkpt lat="41.58614" lon="8.95842">
        <ele>351.02</ele>
        <time>2026-05-08T12:24:05Z</time>
      </trkpt>
      <trkpt lat="41.58614" lon="8.95834">
        <ele>349.58</ele>
        <time>2026-05-08T12:24:16Z</time>
      </trkpt>
      <trkpt lat="41.58607" lon="8.95825">
        <ele>349.58</ele>
        <time>2026-05-08T12:24:30Z</time>
      </trkpt>
      <trkpt lat="41.58604" lon="8.95818">
        <ele>350.54</ele>
        <time>2026-05-08T12:24:43Z</time>
      </trkpt>
      <trkpt lat="41.58601" lon="8.95812">
        <ele>350.06</ele>
        <time>2026-05-08T12:24:55Z</time>
      </trkpt>
      <trkpt lat="41.58595" lon="8.95802">
        <ele>348.62</ele>
        <time>2026-05-08T12:25:12Z</time>
      </trkpt>
      <trkpt lat="41.58597" lon="8.95802">
        <ele>343.81</ele>
        <time>2026-05-08T12:25:25Z</time>
      </trkpt>
      <trkpt lat="41.58596" lon="8.958">
        <ele>343.33</ele>
        <time>2026-05-08T12:25:39Z</time>
      </trkpt>
      <trkpt lat="41.58588" lon="8.95809">
        <ele>342.37</ele>
        <time>2026-05-08T12:26:03Z</time>
      </trkpt>
      <trkpt lat="41.58591" lon="8.95813">
        <ele>348.62</ele>
        <time>2026-05-08T12:26:25Z</time>
      </trkpt>
      <trkpt lat="41.58596" lon="8.95814">
        <ele>352.46</ele>
        <time>2026-05-08T12:26:46Z</time>
      </trkpt>
      <trkpt lat="41.58602" lon="8.95809">
        <ele>355.34</ele>
        <time>2026-05-08T12:27:02Z</time>
      </trkpt>
      <trkpt lat="41.58607" lon="8.95801">
        <ele>354.86</ele>
        <time>2026-05-08T12:27:16Z</time>
      </trkpt>
      <trkpt lat="41.58606" lon="8.95798">
        <ele>353.42</ele>
        <time>2026-05-08T12:27:34Z</time>
      </trkpt>
      <trkpt lat="41.58608" lon="8.95798">
        <ele>355.83</ele>
        <time>2026-05-08T12:28:01Z</time>
      </trkpt>
      <trkpt lat="41.58608" lon="8.95789">
        <ele>350.54</ele>
        <time>2026-05-08T12:28:16Z</time>
      </trkpt>
      <trkpt lat="41.58609" lon="8.95777">
        <ele>348.13</ele>
        <time>2026-05-08T12:28:35Z</time>
      </trkpt>
      <trkpt lat="41.58608" lon="8.95769">
        <ele>350.06</ele>
        <time>2026-05-08T12:28:50Z</time>
      </trkpt>
      <trkpt lat="41.58609" lon="8.9576">
        <ele>351.98</ele>
        <time>2026-05-08T12:29:04Z</time>
      </trkpt>
      <trkpt lat="41.58606" lon="8.9575">
        <ele>351.98</ele>
        <time>2026-05-08T12:29:18Z</time>
      </trkpt>
      <trkpt lat="41.58606" lon="8.95738">
        <ele>352.94</ele>
        <time>2026-05-08T12:29:32Z</time>
      </trkpt>
      <trkpt lat="41.58605" lon="8.95729">
        <ele>354.86</ele>
        <time>2026-05-08T12:29:48Z</time>
      </trkpt>
      <trkpt lat="41.58602" lon="8.95722">
        <ele>357.75</ele>
        <time>2026-05-08T12:30:04Z</time>
      </trkpt>
      <trkpt lat="41.58598" lon="8.95716">
        <ele>362.07</ele>
        <time>2026-05-08T12:30:22Z</time>
      </trkpt>
      <trkpt lat="41.58595" lon="8.95716">
        <ele>364.48</ele>
        <time>2026-05-08T12:30:41Z</time>
      </trkpt>
      <trkpt lat="41.58596" lon="8.95715">
        <ele>368.32</ele>
        <time>2026-05-08T12:30:56Z</time>
      </trkpt>
      <trkpt lat="41.58592" lon="8.95702">
        <ele>369.76</ele>
        <time>2026-05-08T12:31:15Z</time>
      </trkpt>
      <trkpt lat="41.58589" lon="8.95689">
        <ele>367.84</ele>
        <time>2026-05-08T12:31:34Z</time>
      </trkpt>
      <trkpt lat="41.58586" lon="8.95677">
        <ele>365.44</ele>
        <time>2026-05-08T12:31:50Z</time>
      </trkpt>
      <trkpt lat="41.58585" lon="8.95669">
        <ele>364</ele>
        <time>2026-05-08T12:32:05Z</time>
      </trkpt>
      <trkpt lat="41.58582" lon="8.95664">
        <ele>365.92</ele>
        <time>2026-05-08T12:32:17Z</time>
      </trkpt>
      <trkpt lat="41.58578" lon="8.95655">
        <ele>366.88</ele>
        <time>2026-05-08T12:32:34Z</time>
      </trkpt>
      <trkpt lat="41.58572" lon="8.95638">
        <ele>367.36</ele>
        <time>2026-05-08T12:32:52Z</time>
      </trkpt>
      <trkpt lat="41.58569" lon="8.95627">
        <ele>367.36</ele>
        <time>2026-05-08T12:33:06Z</time>
      </trkpt>
      <trkpt lat="41.58566" lon="8.95624">
        <ele>367.36</ele>
        <time>2026-05-08T12:33:23Z</time>
      </trkpt>
      <trkpt lat="41.58562" lon="8.95611">
        <ele>364</ele>
        <time>2026-05-08T12:33:39Z</time>
      </trkpt>
      <trkpt lat="41.58559" lon="8.95599">
        <ele>362.55</ele>
        <time>2026-05-08T12:33:53Z</time>
      </trkpt>
      <trkpt lat="41.58555" lon="8.95586">
        <ele>360.63</ele>
        <time>2026-05-08T12:34:06Z</time>
      </trkpt>
      <trkpt lat="41.58554" lon="8.95573">
        <ele>360.15</ele>
        <time>2026-05-08T12:34:20Z</time>
      </trkpt>
      <trkpt lat="41.58554" lon="8.95566">
        <ele>357.75</ele>
        <time>2026-05-08T12:34:39Z</time>
      </trkpt>
      <trkpt lat="41.58556" lon="8.95555">
        <ele>357.75</ele>
        <time>2026-05-08T12:34:52Z</time>
      </trkpt>
      <trkpt lat="41.58555" lon="8.95543">
        <ele>358.23</ele>
        <time>2026-05-08T12:35:06Z</time>
      </trkpt>
      <trkpt lat="41.58556" lon="8.95537">
        <ele>360.15</ele>
        <time>2026-05-08T12:35:17Z</time>
      </trkpt>
      <trkpt lat="41.58555" lon="8.95535">
        <ele>358.71</ele>
        <time>2026-05-08T12:35:37Z</time>
      </trkpt>
      <trkpt lat="41.58554" lon="8.95543">
        <ele>358.71</ele>
        <time>2026-05-08T12:36:00Z</time>
      </trkpt>
      <trkpt lat="41.58554" lon="8.95523">
        <ele>364.96</ele>
        <time>2026-05-08T12:36:17Z</time>
      </trkpt>
      <trkpt lat="41.5855" lon="8.95512">
        <ele>367.84</ele>
        <time>2026-05-08T12:36:32Z</time>
      </trkpt>
      <trkpt lat="41.58541" lon="8.95501">
        <ele>370.73</ele>
        <time>2026-05-08T12:36:48Z</time>
      </trkpt>
      <trkpt lat="41.58529" lon="8.95492">
        <ele>368.8</ele>
        <time>2026-05-08T12:37:05Z</time>
      </trkpt>
      <trkpt lat="41.58525" lon="8.95491">
        <ele>367.84</ele>
        <time>2026-05-08T12:37:23Z</time>
      </trkpt>
      <trkpt lat="41.58529" lon="8.95491">
        <ele>367.36</ele>
        <time>2026-05-08T12:37:35Z</time>
      </trkpt>
      <trkpt lat="41.58524" lon="8.95487">
        <ele>371.21</ele>
        <time>2026-05-08T12:37:56Z</time>
      </trkpt>
      <trkpt lat="41.58523" lon="8.95483">
        <ele>373.61</ele>
        <time>2026-05-08T12:38:13Z</time>
      </trkpt>
      <trkpt lat="41.58522" lon="8.95479">
        <ele>376.97</ele>
        <time>2026-05-08T12:38:31Z</time>
      </trkpt>
      <trkpt lat="41.5852" lon="8.95484">
        <ele>374.57</ele>
        <time>2026-05-08T12:39:07Z</time>
      </trkpt>
      <trkpt lat="41.58519" lon="8.95487">
        <ele>376.01</ele>
        <time>2026-05-08T12:39:30Z</time>
      </trkpt>
      <trkpt lat="41.5852" lon="8.95487">
        <ele>377.94</ele>
        <time>2026-05-08T12:39:56Z</time>
      </trkpt>
      <trkpt lat="41.58519" lon="8.95476">
        <ele>376.97</ele>
        <time>2026-05-08T12:40:16Z</time>
      </trkpt>
      <trkpt lat="41.58521" lon="8.95473">
        <ele>375.53</ele>
        <time>2026-05-08T12:40:33Z</time>
      </trkpt>
      <trkpt lat="41.58523" lon="8.95475">
        <ele>376.01</ele>
        <time>2026-05-08T12:40:47Z</time>
      </trkpt>
      <trkpt lat="41.58525" lon="8.95474">
        <ele>376.49</ele>
        <time>2026-05-08T12:41:01Z</time>
      </trkpt>
      <trkpt lat="41.5853" lon="8.95469">
        <ele>376.49</ele>
        <time>2026-05-08T12:41:16Z</time>
      </trkpt>
      <trkpt lat="41.58533" lon="8.9547">
        <ele>379.38</ele>
        <time>2026-05-08T12:41:31Z</time>
      </trkpt>
      <trkpt lat="41.58539" lon="8.95467">
        <ele>381.3</ele>
        <time>2026-05-08T12:41:44Z</time>
      </trkpt>
      <trkpt lat="41.58542" lon="8.95464">
        <ele>376.97</ele>
        <time>2026-05-08T12:41:56Z</time>
      </trkpt>
      <trkpt lat="41.58547" lon="8.95465">
        <ele>376.01</ele>
        <time>2026-05-08T12:42:12Z</time>
      </trkpt>
      <trkpt lat="41.58553" lon="8.95459">
        <ele>378.42</ele>
        <time>2026-05-08T12:42:25Z</time>
      </trkpt>
      <trkpt lat="41.58556" lon="8.95455">
        <ele>375.53</ele>
        <time>2026-05-08T12:42:41Z</time>
      </trkpt>
      <trkpt lat="41.58562" lon="8.95449">
        <ele>381.3</ele>
        <time>2026-05-08T12:42:54Z</time>
      </trkpt>
      <trkpt lat="41.5856" lon="8.95442">
        <ele>388.51</ele>
        <time>2026-05-08T12:43:10Z</time>
      </trkpt>
      <trkpt lat="41.58566" lon="8.95442">
        <ele>391.87</ele>
        <time>2026-05-08T12:43:24Z</time>
      </trkpt>
      <trkpt lat="41.58568" lon="8.9544">
        <ele>393.8</ele>
        <time>2026-05-08T12:43:35Z</time>
      </trkpt>
      <trkpt lat="41.5857" lon="8.95436">
        <ele>395.24</ele>
        <time>2026-05-08T12:43:46Z</time>
      </trkpt>
      <trkpt lat="41.58571" lon="8.95435">
        <ele>401.49</ele>
        <time>2026-05-08T12:44:01Z</time>
      </trkpt>
      <trkpt lat="41.58572" lon="8.95436">
        <ele>401.49</ele>
        <time>2026-05-08T12:44:34Z</time>
      </trkpt>
      <trkpt lat="41.58576" lon="8.95437">
        <ele>401.97</ele>
        <time>2026-05-08T12:44:46Z</time>
      </trkpt>
      <trkpt lat="41.58574" lon="8.95429">
        <ele>400.53</ele>
        <time>2026-05-08T12:45:05Z</time>
      </trkpt>
      <trkpt lat="41.58579" lon="8.95432">
        <ele>401.01</ele>
        <time>2026-05-08T12:45:23Z</time>
      </trkpt>
      <trkpt lat="41.58584" lon="8.95432">
        <ele>399.57</ele>
        <time>2026-05-08T12:45:35Z</time>
      </trkpt>
      <trkpt lat="41.5859" lon="8.95429">
        <ele>402.45</ele>
        <time>2026-05-08T12:45:48Z</time>
      </trkpt>
      <trkpt lat="41.58595" lon="8.95423">
        <ele>404.85</ele>
        <time>2026-05-08T12:46:04Z</time>
      </trkpt>
      <trkpt lat="41.58596" lon="8.95416">
        <ele>405.33</ele>
        <time>2026-05-08T12:46:11Z</time>
      </trkpt>
      <trkpt lat="41.58597" lon="8.95404">
        <ele>404.37</ele>
        <time>2026-05-08T12:46:22Z</time>
      </trkpt>
      <trkpt lat="41.58595" lon="8.95395">
        <ele>403.89</ele>
        <time>2026-05-08T12:46:33Z</time>
      </trkpt>
      <trkpt lat="41.58596" lon="8.95386">
        <ele>401.49</ele>
        <time>2026-05-08T12:46:45Z</time>
      </trkpt>
      <trkpt lat="41.58601" lon="8.95381">
        <ele>402.93</ele>
        <time>2026-05-08T12:46:57Z</time>
      </trkpt>
      <trkpt lat="41.58607" lon="8.95376">
        <ele>404.37</ele>
        <time>2026-05-08T12:47:12Z</time>
      </trkpt>
      <trkpt lat="41.58612" lon="8.95377">
        <ele>404.85</ele>
        <time>2026-05-08T12:47:24Z</time>
      </trkpt>
      <trkpt lat="41.58623" lon="8.95376">
        <ele>406.29</ele>
        <time>2026-05-08T12:47:39Z</time>
      </trkpt>
      <trkpt lat="41.58631" lon="8.95374">
        <ele>406.29</ele>
        <time>2026-05-08T12:47:50Z</time>
      </trkpt>
      <trkpt lat="41.58643" lon="8.95372">
        <ele>409.66</ele>
        <time>2026-05-08T12:48:04Z</time>
      </trkpt>
      <trkpt lat="41.58652" lon="8.95371">
        <ele>413.98</ele>
        <time>2026-05-08T12:48:18Z</time>
      </trkpt>
      <trkpt lat="41.58658" lon="8.95375">
        <ele>420.23</ele>
        <time>2026-05-08T12:48:34Z</time>
      </trkpt>
      <trkpt lat="41.58658" lon="8.95375">
        <ele>419.75</ele>
        <time>2026-05-08T12:48:39Z</time>
      </trkpt>
      <trkpt lat="41.58651" lon="8.95375">
        <ele>416.39</ele>
        <time>2026-05-08T12:48:49Z</time>
      </trkpt>
      <trkpt lat="41.58649" lon="8.95368">
        <ele>414.47</ele>
        <time>2026-05-08T12:48:59Z</time>
      </trkpt>
      <trkpt lat="41.58643" lon="8.95373">
        <ele>416.87</ele>
        <time>2026-05-08T12:49:18Z</time>
      </trkpt>
      <trkpt lat="41.58651" lon="8.95379">
        <ele>417.35</ele>
        <time>2026-05-08T12:49:34Z</time>
      </trkpt>
      <trkpt lat="41.58651" lon="8.95391">
        <ele>413.5</ele>
        <time>2026-05-08T12:49:46Z</time>
      </trkpt>
      <trkpt lat="41.58651" lon="8.95392">
        <ele>413.02</ele>
        <time>2026-05-08T12:49:47Z</time>
      </trkpt>
      <trkpt lat="41.58651" lon="8.95395">
        <ele>412.54</ele>
        <time>2026-05-08T12:49:49Z</time>
      </trkpt>
      <trkpt lat="41.5865" lon="8.95408">
        <ele>407.26</ele>
        <time>2026-05-08T12:49:58Z</time>
      </trkpt>
      <trkpt lat="41.58663" lon="8.95411">
        <ele>407.74</ele>
        <time>2026-05-08T12:50:10Z</time>
      </trkpt>
      <trkpt lat="41.58675" lon="8.95414">
        <ele>409.66</ele>
        <time>2026-05-08T12:50:24Z</time>
      </trkpt>
      <trkpt lat="41.58684" lon="8.95413">
        <ele>413.98</ele>
        <time>2026-05-08T12:50:38Z</time>
      </trkpt>
      <trkpt lat="41.58695" lon="8.9541">
        <ele>416.39</ele>
        <time>2026-05-08T12:50:52Z</time>
      </trkpt>
      <trkpt lat="41.58704" lon="8.95414">
        <ele>416.39</ele>
        <time>2026-05-08T12:51:07Z</time>
      </trkpt>
      <trkpt lat="41.58714" lon="8.95422">
        <ele>416.39</ele>
        <time>2026-05-08T12:51:20Z</time>
      </trkpt>
      <trkpt lat="41.58719" lon="8.95429">
        <ele>416.87</ele>
        <time>2026-05-08T12:51:30Z</time>
      </trkpt>
      <trkpt lat="41.58725" lon="8.95433">
        <ele>417.83</ele>
        <time>2026-05-08T12:51:39Z</time>
      </trkpt>
      <trkpt lat="41.58727" lon="8.95436">
        <ele>418.31</ele>
        <time>2026-05-08T12:51:42Z</time>
      </trkpt>
      <trkpt lat="41.58723" lon="8.95445">
        <ele>418.79</ele>
        <time>2026-05-08T12:51:55Z</time>
      </trkpt>
      <trkpt lat="41.58719" lon="8.95455">
        <ele>420.71</ele>
        <time>2026-05-08T12:52:06Z</time>
      </trkpt>
      <trkpt lat="41.58721" lon="8.95468">
        <ele>421.68</ele>
        <time>2026-05-08T12:52:18Z</time>
      </trkpt>
      <trkpt lat="41.58725" lon="8.95475">
        <ele>421.68</ele>
        <time>2026-05-08T12:52:30Z</time>
      </trkpt>
      <trkpt lat="41.58725" lon="8.95469">
        <ele>421.68</ele>
        <time>2026-05-08T12:52:48Z</time>
      </trkpt>
      <trkpt lat="41.58726" lon="8.95465">
        <ele>421.19</ele>
        <time>2026-05-08T12:52:53Z</time>
      </trkpt>
      <trkpt lat="41.58729" lon="8.95448">
        <ele>420.23</ele>
        <time>2026-05-08T12:53:06Z</time>
      </trkpt>
      <trkpt lat="41.58732" lon="8.95443">
        <ele>420.23</ele>
        <time>2026-05-08T12:53:11Z</time>
      </trkpt>
      <trkpt lat="41.58737" lon="8.95433">
        <ele>417.83</ele>
        <time>2026-05-08T12:53:23Z</time>
      </trkpt>
      <trkpt lat="41.5874" lon="8.95438">
        <ele>418.31</ele>
        <time>2026-05-08T12:53:33Z</time>
      </trkpt>
      <trkpt lat="41.58743" lon="8.9544">
        <ele>418.79</ele>
        <time>2026-05-08T12:53:37Z</time>
      </trkpt>
      <trkpt lat="41.58747" lon="8.9544">
        <ele>418.79</ele>
        <time>2026-05-08T12:53:42Z</time>
      </trkpt>
      <trkpt lat="41.58753" lon="8.95449">
        <ele>418.79</ele>
        <time>2026-05-08T12:53:53Z</time>
      </trkpt>
      <trkpt lat="41.58758" lon="8.95463">
        <ele>419.75</ele>
        <time>2026-05-08T12:54:05Z</time>
      </trkpt>
      <trkpt lat="41.58764" lon="8.95466">
        <ele>421.68</ele>
        <time>2026-05-08T12:54:16Z</time>
      </trkpt>
      <trkpt lat="41.58771" lon="8.95463">
        <ele>423.6</ele>
        <time>2026-05-08T12:54:28Z</time>
      </trkpt>
      <trkpt lat="41.58777" lon="8.95466">
        <ele>425.04</ele>
        <time>2026-05-08T12:54:38Z</time>
      </trkpt>
      <trkpt lat="41.58784" lon="8.9547">
        <ele>424.56</ele>
        <time>2026-05-08T12:54:50Z</time>
      </trkpt>
      <trkpt lat="41.58792" lon="8.95475">
        <ele>424.56</ele>
        <time>2026-05-08T12:55:02Z</time>
      </trkpt>
      <trkpt lat="41.58799" lon="8.95481">
        <ele>423.6</ele>
        <time>2026-05-08T12:55:13Z</time>
      </trkpt>
      <trkpt lat="41.58806" lon="8.95485">
        <ele>425.52</ele>
        <time>2026-05-08T12:55:25Z</time>
      </trkpt>
      <trkpt lat="41.58815" lon="8.95491">
        <ele>426.48</ele>
        <time>2026-05-08T12:55:37Z</time>
      </trkpt>
      <trkpt lat="41.5882" lon="8.95498">
        <ele>429.37</ele>
        <time>2026-05-08T12:55:49Z</time>
      </trkpt>
      <trkpt lat="41.5883" lon="8.95504">
        <ele>427.92</ele>
        <time>2026-05-08T12:56:04Z</time>
      </trkpt>
      <trkpt lat="41.58834" lon="8.95507">
        <ele>428.89</ele>
        <time>2026-05-08T12:56:12Z</time>
      </trkpt>
      <trkpt lat="41.58842" lon="8.95515">
        <ele>428.89</ele>
        <time>2026-05-08T12:56:23Z</time>
      </trkpt>
      <trkpt lat="41.58847" lon="8.95521">
        <ele>427.92</ele>
        <time>2026-05-08T12:56:34Z</time>
      </trkpt>
      <trkpt lat="41.58851" lon="8.95526">
        <ele>428.4</ele>
        <time>2026-05-08T12:56:50Z</time>
      </trkpt>
      <trkpt lat="41.58859" lon="8.95528">
        <ele>429.85</ele>
        <time>2026-05-08T12:57:01Z</time>
      </trkpt>
      <trkpt lat="41.58867" lon="8.95524">
        <ele>432.73</ele>
        <time>2026-05-08T12:57:17Z</time>
      </trkpt>
      <trkpt lat="41.58873" lon="8.95518">
        <ele>436.58</ele>
        <time>2026-05-08T12:57:27Z</time>
      </trkpt>
      <trkpt lat="41.58872" lon="8.95515">
        <ele>437.06</ele>
        <time>2026-05-08T12:57:29Z</time>
      </trkpt>
      <trkpt lat="41.58862" lon="8.95506">
        <ele>436.58</ele>
        <time>2026-05-08T12:57:41Z</time>
      </trkpt>
      <trkpt lat="41.58853" lon="8.95501">
        <ele>433.69</ele>
        <time>2026-05-08T12:57:55Z</time>
      </trkpt>
      <trkpt lat="41.58849" lon="8.955">
        <ele>432.73</ele>
        <time>2026-05-08T12:58:13Z</time>
      </trkpt>
      <trkpt lat="41.58846" lon="8.95503">
        <ele>437.06</ele>
        <time>2026-05-08T12:58:40Z</time>
      </trkpt>
      <trkpt lat="41.58848" lon="8.95504">
        <ele>438.02</ele>
        <time>2026-05-08T12:59:07Z</time>
      </trkpt>
      <trkpt lat="41.58847" lon="8.95506">
        <ele>436.58</ele>
        <time>2026-05-08T12:59:33Z</time>
      </trkpt>
      <trkpt lat="41.58847" lon="8.95503">
        <ele>435.61</ele>
        <time>2026-05-08T12:59:59Z</time>
      </trkpt>
      <trkpt lat="41.58847" lon="8.95503">
        <ele>438.5</ele>
        <time>2026-05-08T13:00:33Z</time>
      </trkpt>
      <trkpt lat="41.58849" lon="8.95499">
        <ele>441.86</ele>
        <time>2026-05-08T13:01:05Z</time>
      </trkpt>
      <trkpt lat="41.5885" lon="8.955">
        <ele>437.54</ele>
        <time>2026-05-08T13:01:25Z</time>
      </trkpt>
      <trkpt lat="41.58853" lon="8.95502">
        <ele>434.65</ele>
        <time>2026-05-08T13:01:45Z</time>
      </trkpt>
      <trkpt lat="41.5885" lon="8.95503">
        <ele>435.13</ele>
        <time>2026-05-08T13:02:08Z</time>
      </trkpt>
      <trkpt lat="41.58849" lon="8.95506">
        <ele>435.61</ele>
        <time>2026-05-08T13:02:30Z</time>
      </trkpt>
      <trkpt lat="41.58849" lon="8.95507">
        <ele>433.69</ele>
        <time>2026-05-08T13:02:58Z</time>
      </trkpt>
    </trkseg>
  </trk>
</gpx>